Observation data for Fritch on 06/14/2019      Previous  Date  Next       Current Mesonet Observations  Soil Data  Daily Summary Page  Observations in Plain Language
KFR1 140500Z 19004KT 18/16 A3011 RMK A01 T01750160  RH  091%=      5-min Rain = 0
KFR1 140501Z 29003KT 18/16 A301 RMK A01 T01750160  RH  091%=      5-min Rain = 0
KFR1 140502Z 21004KT 17/16 A301 RMK A01 T01740158  RH  090%=      5-min Rain = 0.01
KFR1 140503Z 21006KT 18/15 A301 RMK A01 T01750150  RH  085%=      5-min Rain = 0
KFR1 140504Z 17007KT 18/15 A3009 RMK A01 T01800153  RH  084%=      5-min Rain = 0
KFR1 140505Z 17010KT 18/16 A3008 RMK A01 T01810155  RH  085%=      5-min Rain = 0.01
KFR1 140506Z 17013KT 18/15 A3007 RMK A01 T01800154  RH  085%=      5-min Rain = 0
KFR1 140507Z 17015KT 18/15 A3006 RMK A01 T01790152  RH  084%=      5-min Rain = 0
KFR1 140508Z 17017G22KT 18/15 A3005 RMK A01 T01800149  RH  082%=      5-min Rain = 0
KFR1 140509Z 17016KT 18/15 A3005 RMK A01 T01840147  RH  079%=      5-min Rain = 0
KFR1 140510Z 18016G21KT 19/15 A3005 RMK A01 T01860149  RH  079%=      5-min Rain = 0
KFR1 140511Z 18016KT 19/15 A3004 RMK A01 T01860149  RH  079%=      5-min Rain = 0
KFR1 140512Z 17018KT 19/15 A3003 RMK A01 T01870149  RH  079%=      5-min Rain = 0
KFR1 140513Z 17018KT 19/15 A3003 RMK A01 T01870149  RH  079%=      5-min Rain = 0
KFR1 140514Z 17021KT 19/15 A3002 RMK A01 T01870148  RH  078%=      5-min Rain = 0.01
KFR1 140515Z 17019KT 19/15 A3002 RMK A01 T01870150  RH  079%=      5-min Rain = 0
KFR1 140516Z 16019KT 19/15 A3001 RMK A01 T01860149  RH  079%=      5-min Rain = 0
KFR1 140517Z 16020G25KT 19/15 A30 RMK A01 T01860148  RH  079%=      5-min Rain = 0
KFR1 140518Z 16021KT 19/15 A2999 RMK A01 T01860148  RH  079%=      5-min Rain = 0
KFR1 140519Z 16020G27KT 19/15 A2999 RMK A01 T01860149  RH  079%=      5-min Rain = 0
KFR1 140520Z 16021G28KT 19/15 A2999 RMK A01 T01860149  RH  079%=      5-min Rain = 0
KFR1 140521Z 16022G28KT 19/15 A2999 RMK A01 T01850148  RH  079%=      5-min Rain = 0
KFR1 140522Z 16019G24KT 19/15 A2998 RMK A01 T01870148  RH  078%=      5-min Rain = 0
KFR1 140523Z 16020G25KT 19/15 A2998 RMK A01 T01880146  RH  077%=      5-min Rain = 0
KFR1 140524Z 16020G25KT 19/15 A2998 RMK A01 T01900146  RH  075%=      5-min Rain = 0
KFR1 140525Z 17018G23KT 19/15 A2998 RMK A01 T01910146  RH  075%=      5-min Rain = 0
KFR1 140526Z 16019KT 19/15 A2998 RMK A01 T01920145  RH  074%=      5-min Rain = 0
KFR1 140527Z 16020KT 19/15 A2998 RMK A01 T01930145  RH  074%=      5-min Rain = 0
KFR1 140528Z 16021KT 19/14 A2998 RMK A01 T01930144  RH  073%=      5-min Rain = 0
KFR1 140529Z 16019G25KT 19/14 A2997 RMK A01 T01930144  RH  073%=      5-min Rain = 0
KFR1 140530Z 16021KT 19/14 A2997 RMK A01 T01930144  RH  073%=      5-min Rain = 0
KFR1 140531Z 16018G23KT 19/14 A2997 RMK A01 T01930144  RH  073%=      5-min Rain = 0
KFR1 140532Z 16021KT 19/15 A2997 RMK A01 T01940145  RH  073%=      5-min Rain = 0
KFR1 140533Z 16018G25KT 19/14 A2996 RMK A01 T01940143  RH  072%=      5-min Rain = 0
KFR1 140534Z 15017G25KT 20/14 A2996 RMK A01 T01950142  RH  071%=      5-min Rain = 0
KFR1 140535Z 15016KT 20/14 A2996 RMK A01 T01960143  RH  071%=      5-min Rain = 0
KFR1 140536Z 15014G21KT 20/15 A2996 RMK A01 T01960145  RH  072%=      5-min Rain = 0
KFR1 140537Z 15014G20KT 20/15 A2996 RMK A01 T01950145  RH  073%=      5-min Rain = 0
KFR1 140538Z 14012G17KT 19/15 A2995 RMK A01 T01930146  RH  074%=      5-min Rain = 0
KFR1 140539Z 14016KT 19/15 A2995 RMK A01 T01910146  RH  075%=      5-min Rain = 0
KFR1 140540Z 14015KT 19/15 A2995 RMK A01 T01890146  RH  076%=      5-min Rain = 0
KFR1 140541Z 14015KT 19/15 A2995 RMK A01 T01880145  RH  076%=      5-min Rain = 0
KFR1 140542Z 14015KT 19/14 A2995 RMK A01 T01880144  RH  075%=      5-min Rain = 0
KFR1 140543Z 14016G21KT 19/14 A2995 RMK A01 T01890144  RH  075%=      5-min Rain = 0
KFR1 140544Z 14015KT 19/14 A2995 RMK A01 T01890144  RH  075%=      5-min Rain = 0
KFR1 140545Z 15015G20KT 19/14 A2995 RMK A01 T01890144  RH  075%=      5-min Rain = 0
KFR1 140546Z 13017G23KT 19/14 A2994 RMK A01 T01900143  RH  074%=      5-min Rain = 0
KFR1 140547Z 14017G23KT 19/14 A2994 RMK A01 T01910142  RH  073%=      5-min Rain = 0
KFR1 140548Z 14018G23KT 19/14 A2994 RMK A01 T01920141  RH  072%=      5-min Rain = 0
KFR1 140549Z 14015G21KT 19/14 A2994 RMK A01 T01930141  RH  072%=      5-min Rain = 0
KFR1 140550Z 13017G23KT 19/14 A2993 RMK A01 T01940141  RH  071%=      5-min Rain = 0
KFR1 140551Z 14018KT 20/14 A2993 RMK A01 T01950140  RH  071%=      5-min Rain = 0
KFR1 140552Z 14017G24KT 20/14 A2993 RMK A01 T01960140  RH  070%=      5-min Rain = 0
KFR1 140553Z 14016G22KT 20/14 A2993 RMK A01 T01960141  RH  070%=      5-min Rain = 0
KFR1 140554Z 14017KT 20/14 A2993 RMK A01 T01960140  RH  070%=      5-min Rain = 0
KFR1 140555Z 14019G24KT 20/14 A2994 RMK A01 T01970140  RH  070%=      5-min Rain = 0
KFR1 140556Z 14016G21KT 20/14 A2994 RMK A01 T01980139  RH  069%=      5-min Rain = 0
KFR1 140557Z 13017G22KT 20/14 A2994 RMK A01 T01990139  RH  069%=      5-min Rain = 0
KFR1 140558Z 13018G23KT 20/14 A2994 RMK A01 T01990138  RH  068%=      5-min Rain = 0
KFR1 140559Z 13016G22KT 20/14 A2994 RMK A01 T02000138  RH  068%=      5-min Rain = 0
KFR1 140600Z 13016G22KT 20/14 A2994 RMK A01 T02000139  RH  068%=      5-min Rain = 0
KFR1 140601Z 12019KT 20/14 A2994 RMK A01 T02010140  RH  068%=      5-min Rain = 0
KFR1 140602Z 12014KT 20/14 A2994 RMK A01 T02000141  RH  069%=      5-min Rain = 0
KFR1 140603Z 12016KT 20/14 A2994 RMK A01 T01990141  RH  069%=      5-min Rain = 0
KFR1 140604Z 12013KT 20/14 A2994 RMK A01 T01980141  RH  070%=      5-min Rain = 0
KFR1 140605Z 12014KT 20/14 A2994 RMK A01 T01980141  RH  070%=      5-min Rain = 0
KFR1 140606Z 12015KT 20/14 A2994 RMK A01 T01980139  RH  069%=      5-min Rain = 0
KFR1 140607Z 13016KT 20/14 A2994 RMK A01 T01980139  RH  069%=      5-min Rain = 0
KFR1 140608Z 13015KT 20/14 A2994 RMK A01 T01990139  RH  068%=      5-min Rain = 0
KFR1 140609Z 13015KT 20/14 A2994 RMK A01 T02000138  RH  068%=      5-min Rain = 0
KFR1 140610Z 13013KT 20/14 A2994 RMK A01 T02010138  RH  067%=      5-min Rain = 0
KFR1 140611Z 13015KT 20/14 A2994 RMK A01 T02010138  RH  067%=      5-min Rain = 0
KFR1 140612Z 13017KT 20/14 A2994 RMK A01 T02010136  RH  066%=      5-min Rain = 0
KFR1 140613Z 14014KT 20/14 A2994 RMK A01 T02020136  RH  066%=      5-min Rain = 0
KFR1 140614Z 13013KT 20/14 A2994 RMK A01 T02020137  RH  066%=      5-min Rain = 0
KFR1 140615Z 14016KT 20/14 A2994 RMK A01 T02010138  RH  067%=      5-min Rain = 0
KFR1 140616Z 13014KT 20/14 A2994 RMK A01 T02000137  RH  067%=      5-min Rain = 0
KFR1 140617Z 13016G21KT 20/14 A2994 RMK A01 T02010137  RH  067%=      5-min Rain = 0
KFR1 140618Z 13015KT 20/14 A2994 RMK A01 T02010137  RH  067%=      5-min Rain = 0
KFR1 140619Z 14016G21KT 20/14 A2994 RMK A01 T02000137  RH  067%=      5-min Rain = 0
KFR1 140620Z 14015G20KT 20/14 A2994 RMK A01 T02000137  RH  067%=      5-min Rain = 0
KFR1 140621Z 13015KT 20/14 A2994 RMK A01 T02000135  RH  066%=      5-min Rain = 0
KFR1 140622Z 13017KT 20/14 A2994 RMK A01 T02010136  RH  066%=      5-min Rain = 0
KFR1 140623Z 12017KT 20/14 A2994 RMK A01 T02010137  RH  067%=      5-min Rain = 0
KFR1 140624Z 13016G21KT 20/14 A2994 RMK A01 T02010137  RH  067%=      5-min Rain = 0
KFR1 140625Z 12016G21KT 20/14 A2994 RMK A01 T02010137  RH  067%=      5-min Rain = 0
KFR1 140626Z 12015KT 20/14 A2994 RMK A01 T02010138  RH  067%=      5-min Rain = 0
KFR1 140627Z 12016G21KT 20/14 A2995 RMK A01 T01990138  RH  068%=      5-min Rain = 0
KFR1 140628Z 12017KT 20/14 A2995 RMK A01 T01990137  RH  067%=      5-min Rain = 0
KFR1 140629Z 13015G21KT 20/14 A2995 RMK A01 T01990137  RH  067%=      5-min Rain = 0
KFR1 140630Z 14015KT 20/14 A2996 RMK A01 T02000137  RH  067%=      5-min Rain = 0
KFR1 140631Z 15011G16KT 20/14 A2996 RMK A01 T02000137  RH  067%=      5-min Rain = 0
KFR1 140632Z 16015KT 20/14 A2997 RMK A01 T02000139  RH  068%=      5-min Rain = 0
KFR1 140633Z 17017KT 20/14 A2998 RMK A01 T01990139  RH  068%=      5-min Rain = 0
KFR1 140634Z 17015KT 20/14 A2998 RMK A01 T01980140  RH  069%=      5-min Rain = 0
KFR1 140635Z 17017KT 20/14 A2999 RMK A01 T01980140  RH  069%=      5-min Rain = 0
KFR1 140636Z 17014KT 20/14 A2999 RMK A01 T01960142  RH  071%=      5-min Rain = 0
KFR1 140637Z 17015G20KT 20/14 A2999 RMK A01 T01950143  RH  072%=      5-min Rain = 0
KFR1 140638Z 16016KT 19/14 A2999 RMK A01 T01940142  RH  072%=      5-min Rain = 0
KFR1 140639Z 16016G21KT 19/14 A2999 RMK A01 T01930141  RH  072%=      5-min Rain = 0
KFR1 140640Z 16018KT 19/14 A2999 RMK A01 T01940140  RH  071%=      5-min Rain = 0
KFR1 140641Z 16013G18KT 20/14 A2999 RMK A01 T01950141  RH  071%=      5-min Rain = 0
KFR1 140642Z 15014G21KT 20/14 A2999 RMK A01 T01950141  RH  071%=      5-min Rain = 0
KFR1 140643Z 15012G17KT 20/14 A2999 RMK A01 T01950142  RH  071%=      5-min Rain = 0
KFR1 140644Z 16013G19KT 19/14 A2999 RMK A01 T01940141  RH  071%=      5-min Rain = 0
KFR1 140645Z 15009KT 19/14 A2999 RMK A01 T01940142  RH  072%=      5-min Rain = 0
KFR1 140646Z 15011G16KT 19/14 A2999 RMK A01 T01940142  RH  072%=      5-min Rain = 0
KFR1 140647Z 14011KT 19/14 A30 RMK A01 T01940141  RH  072%=      5-min Rain = 0
KFR1 140648Z 14012KT 19/14 A2999 RMK A01 T01940141  RH  072%=      5-min Rain = 0
KFR1 140649Z 14012KT 19/14 A30 RMK A01 T01940142  RH  072%=      5-min Rain = 0
KFR1 140650Z 14012KT 19/14 A30 RMK A01 T01930142  RH  072%=      5-min Rain = 0
KFR1 140651Z 14012KT 19/14 A30 RMK A01 T01930142  RH  072%=      5-min Rain = 0
KFR1 140652Z 15009KT 19/14 A30 RMK A01 T01930142  RH  072%=      5-min Rain = 0
KFR1 140653Z 14011G17KT 19/14 A30 RMK A01 T01920142  RH  073%=      5-min Rain = 0
KFR1 140654Z 14011KT 19/14 A30 RMK A01 T01920141  RH  073%=      5-min Rain = 0
KFR1 140655Z 14012G17KT 19/14 A30 RMK A01 T01920141  RH  072%=      5-min Rain = 0
KFR1 140656Z 14010KT 19/14 A30 RMK A01 T01920140  RH  072%=      5-min Rain = 0
KFR1 140657Z 14010KT 19/14 A30 RMK A01 T01920140  RH  072%=      5-min Rain = 0
KFR1 140658Z 15011G16KT 19/14 A30 RMK A01 T01910140  RH  072%=      5-min Rain = 0
KFR1 140659Z 15010G15KT 19/14 A2999 RMK A01 T01910140  RH  072%=      5-min Rain = 0
KFR1 140700Z 14012G17KT 19/14 A2999 RMK A01 T01920139  RH  071%=      5-min Rain = 0
KFR1 140701Z 14010KT 19/14 A2999 RMK A01 T01920139  RH  071%=      5-min Rain = 0
KFR1 140702Z 14011G17KT 19/14 A2999 RMK A01 T01910140  RH  072%=      5-min Rain = 0
KFR1 140703Z 15011KT 19/14 A2999 RMK A01 T01910139  RH  072%=      5-min Rain = 0
KFR1 140704Z 14012KT 19/14 A2999 RMK A01 T01910139  RH  072%=      5-min Rain = 0
KFR1 140705Z 14011G17KT 19/14 A2999 RMK A01 T01910139  RH  072%=      5-min Rain = 0
KFR1 140706Z 15012KT 19/14 A2999 RMK A01 T01900139  RH  072%=      5-min Rain = 0
KFR1 140707Z 16013KT 19/14 A2999 RMK A01 T01900139  RH  072%=      5-min Rain = 0
KFR1 140708Z 16012KT 19/14 A2999 RMK A01 T01890140  RH  073%=      5-min Rain = 0
KFR1 140709Z 16016KT 19/14 A2999 RMK A01 T01890141  RH  074%=      5-min Rain = 0
KFR1 140710Z 16016KT 19/14 A2999 RMK A01 T01880140  RH  074%=      5-min Rain = 0
KFR1 140711Z 16016KT 19/14 A2998 RMK A01 T01870140  RH  074%=      5-min Rain = 0
KFR1 140712Z 16014G19KT 19/14 A2998 RMK A01 T01870140  RH  074%=      5-min Rain = 0
KFR1 140713Z 16016KT 19/14 A2998 RMK A01 T01870140  RH  074%=      5-min Rain = 0
KFR1 140714Z 16017KT 19/14 A2998 RMK A01 T01870139  RH  074%=      5-min Rain = 0
KFR1 140715Z 16016KT 19/14 A2998 RMK A01 T01870138  RH  073%=      5-min Rain = 0
KFR1 140716Z 16017KT 19/14 A2997 RMK A01 T01870138  RH  073%=      5-min Rain = 0
KFR1 140717Z 16019KT 19/14 A2997 RMK A01 T01870138  RH  073%=      5-min Rain = 0
KFR1 140718Z 16018KT 19/14 A2997 RMK A01 T01880138  RH  073%=      5-min Rain = 0
KFR1 140719Z 17017G22KT 19/14 A2997 RMK A01 T01880137  RH  072%=      5-min Rain = 0
KFR1 140720Z 17014KT 19/14 A2997 RMK A01 T01880138  RH  073%=      5-min Rain = 0
KFR1 140721Z 16015G22KT 19/14 A2997 RMK A01 T01880138  RH  073%=      5-min Rain = 0
KFR1 140722Z 17015KT 19/14 A2997 RMK A01 T01870138  RH  073%=      5-min Rain = 0
KFR1 140723Z 17018KT 19/14 A2997 RMK A01 T01870139  RH  073%=      5-min Rain = 0
KFR1 140724Z 17015G21KT 19/14 A2997 RMK A01 T01870139  RH  073%=      5-min Rain = 0
KFR1 140725Z 17016G22KT 19/14 A2997 RMK A01 T01870140  RH  074%=      5-min Rain = 0
KFR1 140726Z 17016KT 19/14 A2996 RMK A01 T01860140  RH  074%=      5-min Rain = 0
KFR1 140727Z 17018KT 19/14 A2996 RMK A01 T01860140  RH  074%=      5-min Rain = 0
KFR1 140728Z 17016KT 19/14 A2996 RMK A01 T01860139  RH  074%=      5-min Rain = 0
KFR1 140729Z 16016KT 19/14 A2996 RMK A01 T01860138  RH  074%=      5-min Rain = 0
KFR1 140730Z 16016KT 19/14 A2996 RMK A01 T01870138  RH  073%=      5-min Rain = 0
KFR1 140731Z 16018KT 19/14 A2996 RMK A01 T01870137  RH  073%=      5-min Rain = 0
KFR1 140732Z 17017KT 19/14 A2996 RMK A01 T01870137  RH  073%=      5-min Rain = 0
KFR1 140733Z 17017G23KT 19/14 A2996 RMK A01 T01880137  RH  072%=      5-min Rain = 0
KFR1 140734Z 17017KT 19/14 A2995 RMK A01 T01890137  RH  072%=      5-min Rain = 0
KFR1 140735Z 17018G23KT 19/14 A2995 RMK A01 T01900137  RH  071%=      5-min Rain = 0
KFR1 140736Z 17019KT 19/14 A2995 RMK A01 T01900136  RH  071%=      5-min Rain = 0
KFR1 140737Z 17021G26KT 19/14 A2995 RMK A01 T01920135  RH  070%=      5-min Rain = 0
KFR1 140738Z 17018G23KT 19/14 A2995 RMK A01 T01930135  RH  069%=      5-min Rain = 0
KFR1 140739Z 17019KT 19/14 A2995 RMK A01 T01930135  RH  069%=      5-min Rain = 0
KFR1 140740Z 16017G22KT 19/14 A2994 RMK A01 T01930136  RH  070%=      5-min Rain = 0
KFR1 140741Z 17015G22KT 19/14 A2994 RMK A01 T01920137  RH  070%=      5-min Rain = 0
KFR1 140742Z 17018G23KT 19/14 A2994 RMK A01 T01910137  RH  071%=      5-min Rain = 0
KFR1 140743Z 16018KT 19/14 A2994 RMK A01 T01910138  RH  071%=      5-min Rain = 0
KFR1 140744Z 16017KT 19/14 A2994 RMK A01 T01900138  RH  072%=      5-min Rain = 0
KFR1 140745Z 16016KT 19/14 A2994 RMK A01 T01900139  RH  072%=      5-min Rain = 0
KFR1 140746Z 17016G21KT 19/14 A2994 RMK A01 T01890138  RH  072%=      5-min Rain = 0
KFR1 140747Z 17018G25KT 19/14 A2994 RMK A01 T01890139  RH  072%=      5-min Rain = 0
KFR1 140748Z 17019G26KT 19/14 A2994 RMK A01 T01890137  RH  072%=      5-min Rain = 0
KFR1 140749Z 17018G24KT 19/14 A2994 RMK A01 T01900138  RH  072%=      5-min Rain = 0
KFR1 140750Z 17019KT 19/14 A2994 RMK A01 T01900138  RH  072%=      5-min Rain = 0
KFR1 140751Z 17019G24KT 19/14 A2994 RMK A01 T01900138  RH  071%=      5-min Rain = 0
KFR1 140752Z 17020KT 19/14 A2994 RMK A01 T01910138  RH  071%=      5-min Rain = 0
KFR1 140753Z 17021G27KT 19/14 A2994 RMK A01 T01910138  RH  071%=      5-min Rain = 0
KFR1 140754Z 17021G26KT 19/14 A2994 RMK A01 T01910138  RH  071%=      5-min Rain = 0
KFR1 140755Z 17018G24KT 19/14 A2994 RMK A01 T01910139  RH  072%=      5-min Rain = 0
KFR1 140756Z 17017G24KT 19/14 A2994 RMK A01 T01900139  RH  072%=      5-min Rain = 0
KFR1 140757Z 17019KT 19/14 A2994 RMK A01 T01890138  RH  072%=      5-min Rain = 0
KFR1 140758Z 17019G24KT 19/14 A2994 RMK A01 T01890139  RH  072%=      5-min Rain = 0
KFR1 140759Z 17017G23KT 19/14 A2994 RMK A01 T01890138  RH  072%=      5-min Rain = 0
KFR1 140800Z 17019G26KT 19/14 A2994 RMK A01 T01880138  RH  072%=      5-min Rain = 0
KFR1 140801Z 16018G24KT 19/14 A2994 RMK A01 T01880138  RH  073%=      5-min Rain = 0
KFR1 140802Z 16019G27KT 19/14 A2994 RMK A01 T01870138  RH  073%=      5-min Rain = 0
KFR1 140803Z 16020KT 19/14 A2994 RMK A01 T01870138  RH  073%=      5-min Rain = 0
KFR1 140804Z 16020G27KT 19/14 A2994 RMK A01 T01860137  RH  073%=      5-min Rain = 0
KFR1 140805Z 16021G26KT 19/14 A2994 RMK A01 T01860138  RH  073%=      5-min Rain = 0
KFR1 140806Z 16020G26KT 19/14 A2994 RMK A01 T01850138  RH  074%=      5-min Rain = 0
KFR1 140807Z 16019G25KT 18/14 A2994 RMK A01 T01840138  RH  074%=      5-min Rain = 0
KFR1 140808Z 16016G21KT 18/14 A2994 RMK A01 T01830138  RH  075%=      5-min Rain = 0
KFR1 140809Z 16014KT 18/14 A2994 RMK A01 T01820139  RH  076%=      5-min Rain = 0
KFR1 140810Z 15013G21KT 18/14 A2994 RMK A01 T01810139  RH  076%=      5-min Rain = 0
KFR1 140811Z 15014G22KT 18/14 A2994 RMK A01 T01810139  RH  077%=      5-min Rain = 0
KFR1 140812Z 14014G23KT 18/14 A2994 RMK A01 T01800139  RH  077%=      5-min Rain = 0
KFR1 140813Z 16014G22KT 18/14 A2994 RMK A01 T01800140  RH  077%=      5-min Rain = 0
KFR1 140814Z 16015G21KT 18/14 A2994 RMK A01 T01790139  RH  078%=      5-min Rain = 0
KFR1 140815Z 15016G22KT 18/14 A2994 RMK A01 T01780140  RH  078%=      5-min Rain = 0
KFR1 140816Z 16014G22KT 18/14 A2994 RMK A01 T01780140  RH  078%=      5-min Rain = 0
KFR1 140817Z 15017KT 18/14 A2994 RMK A01 T01770140  RH  079%=      5-min Rain = 0
KFR1 140818Z 16012G19KT 18/14 A2994 RMK A01 T01770140  RH  079%=      5-min Rain = 0
KFR1 140819Z 16013G19KT 18/14 A2994 RMK A01 T01760140  RH  079%=      5-min Rain = 0
KFR1 140820Z 16015G21KT 18/14 A2994 RMK A01 T01760140  RH  080%=      5-min Rain = 0
KFR1 140821Z 16016KT 18/14 A2994 RMK A01 T01760140  RH  080%=      5-min Rain = 0
KFR1 140822Z 16019G24KT 18/14 A2994 RMK A01 T01750140  RH  080%=      5-min Rain = 0
KFR1 140823Z 16018KT 18/14 A2994 RMK A01 T01750139  RH  079%=      5-min Rain = 0
KFR1 140824Z 16018G24KT 18/14 A2993 RMK A01 T01760138  RH  079%=      5-min Rain = 0
KFR1 140825Z 16015G20KT 18/14 A2993 RMK A01 T01770138  RH  078%=      5-min Rain = 0
KFR1 140826Z 16017G23KT 18/14 A2993 RMK A01 T01770138  RH  078%=      5-min Rain = 0
KFR1 140827Z 16016G21KT 18/14 A2993 RMK A01 T01770138  RH  078%=      5-min Rain = 0
KFR1 140828Z 15015KT 18/14 A2993 RMK A01 T01780138  RH  077%=      5-min Rain = 0
KFR1 140829Z 16015KT 18/14 A2993 RMK A01 T01780138  RH  077%=      5-min Rain = 0
KFR1 140830Z 16018G27KT 18/14 A2992 RMK A01 T01790137  RH  077%=      5-min Rain = 0
KFR1 140831Z 16019KT 18/14 A2992 RMK A01 T01790136  RH  076%=      5-min Rain = 0
KFR1 140832Z 16014G19KT 18/14 A2992 RMK A01 T01810137  RH  076%=      5-min Rain = 0
KFR1 140833Z 16017G22KT 18/14 A2993 RMK A01 T01810138  RH  076%=      5-min Rain = 0
KFR1 140834Z 16017G23KT 18/14 A2993 RMK A01 T01800137  RH  076%=      5-min Rain = 0
KFR1 140835Z 16017KT 18/14 A2993 RMK A01 T01800137  RH  076%=      5-min Rain = 0
KFR1 140836Z 16016G23KT 18/14 A2993 RMK A01 T01800137  RH  076%=      5-min Rain = 0
KFR1 140837Z 16020G25KT 18/14 A2993 RMK A01 T01800137  RH  076%=      5-min Rain = 0
KFR1 140838Z 16017G23KT 18/14 A2992 RMK A01 T01800137  RH  076%=      5-min Rain = 0
KFR1 140839Z 16018G24KT 18/14 A2992 RMK A01 T01800137  RH  076%=      5-min Rain = 0
KFR1 140840Z 16016KT 18/14 A2992 RMK A01 T01810138  RH  076%=      5-min Rain = 0
KFR1 140841Z 16016G21KT 18/14 A2992 RMK A01 T01800138  RH  076%=      5-min Rain = 0
KFR1 140842Z 16015G22KT 18/14 A2992 RMK A01 T01800139  RH  077%=      5-min Rain = 0
KFR1 140843Z 16021KT 18/14 A2992 RMK A01 T01790138  RH  077%=      5-min Rain = 0
KFR1 140844Z 16018G23KT 18/14 A2992 RMK A01 T01790138  RH  077%=      5-min Rain = 0
KFR1 140845Z 16017G22KT 18/14 A2992 RMK A01 T01790138  RH  077%=      5-min Rain = 0
KFR1 140846Z 16019KT 18/14 A2992 RMK A01 T01790138  RH  077%=      5-min Rain = 0
KFR1 140847Z 16017G22KT 18/14 A2992 RMK A01 T01790138  RH  077%=      5-min Rain = 0
KFR1 140848Z 16018KT 18/14 A2991 RMK A01 T01790138  RH  077%=      5-min Rain = 0
KFR1 140849Z 16018G23KT 18/14 A2991 RMK A01 T01790138  RH  077%=      5-min Rain = 0
KFR1 140850Z 16020KT 18/14 A2991 RMK A01 T01790138  RH  077%=      5-min Rain = 0
KFR1 140851Z 16020KT 18/14 A2991 RMK A01 T01800138  RH  076%=      5-min Rain = 0
KFR1 140852Z 17019G24KT 18/14 A2991 RMK A01 T01810138  RH  076%=      5-min Rain = 0
KFR1 140853Z 16017G22KT 18/14 A2991 RMK A01 T01810138  RH  076%=      5-min Rain = 0
KFR1 140854Z 16018KT 18/14 A2991 RMK A01 T01810138  RH  076%=      5-min Rain = 0
KFR1 140855Z 16018G23KT 18/14 A2991 RMK A01 T01820138  RH  076%=      5-min Rain = 0
KFR1 140856Z 16018KT 18/14 A2991 RMK A01 T01820139  RH  076%=      5-min Rain = 0
KFR1 140857Z 16018G26KT 18/14 A2991 RMK A01 T01820139  RH  076%=      5-min Rain = 0
KFR1 140858Z 17016KT 18/14 A2991 RMK A01 T01830139  RH  075%=      5-min Rain = 0
KFR1 140859Z 17016KT 18/14 A2991 RMK A01 T01840140  RH  075%=      5-min Rain = 0
KFR1 140900Z 17017KT 18/14 A2991 RMK A01 T01830140  RH  076%=      5-min Rain = 0
KFR1 140901Z 17017G22KT 18/14 A2991 RMK A01 T01830140  RH  076%=      5-min Rain = 0
KFR1 140902Z 17020G25KT 18/14 A2991 RMK A01 T01820140  RH  076%=      5-min Rain = 0
KFR1 140903Z 17018G23KT 18/14 A2991 RMK A01 T01840140  RH  076%=      5-min Rain = 0
KFR1 140904Z 16015G20KT 19/14 A2991 RMK A01 T01850141  RH  075%=      5-min Rain = 0
KFR1 140905Z 16018KT 19/14 A2991 RMK A01 T01850141  RH  076%=      5-min Rain = 0
KFR1 140906Z 17016KT 18/14 A2991 RMK A01 T01830140  RH  076%=      5-min Rain = 0
KFR1 140907Z 17016KT 18/14 A2991 RMK A01 T01830141  RH  076%=      5-min Rain = 0
KFR1 140908Z 17017G22KT 18/14 A2991 RMK A01 T01820141  RH  077%=      5-min Rain = 0
KFR1 140909Z 16016G22KT 18/14 A2991 RMK A01 T01830141  RH  076%=      5-min Rain = 0
KFR1 140910Z 16017KT 18/14 A2991 RMK A01 T01830141  RH  076%=      5-min Rain = 0
KFR1 140911Z 16015KT 18/14 A2991 RMK A01 T01840141  RH  076%=      5-min Rain = 0
KFR1 140912Z 16015KT 18/14 A2991 RMK A01 T01840141  RH  076%=      5-min Rain = 0
KFR1 140913Z 16014G20KT 19/14 A2991 RMK A01 T01850141  RH  076%=      5-min Rain = 0
KFR1 140914Z 16016G22KT 18/14 A2991 RMK A01 T01840141  RH  076%=      5-min Rain = 0
KFR1 140915Z 16016G21KT 19/14 A2991 RMK A01 T01850141  RH  075%=      5-min Rain = 0
KFR1 140916Z 16014KT 19/14 A2991 RMK A01 T01850141  RH  075%=      5-min Rain = 0
KFR1 140917Z 17018G24KT 19/14 A299 RMK A01 T01860141  RH  075%=      5-min Rain = 0
KFR1 140918Z 16017KT 19/14 A299 RMK A01 T01860140  RH  074%=      5-min Rain = 0
KFR1 140919Z 16016KT 19/14 A2991 RMK A01 T01870141  RH  074%=      5-min Rain = 0
KFR1 140920Z 17015KT 19/14 A2991 RMK A01 T01880141  RH  074%=      5-min Rain = 0
KFR1 140921Z 17017G22KT 19/14 A299 RMK A01 T01870141  RH  074%=      5-min Rain = 0
KFR1 140922Z 16017G23KT 19/14 A2991 RMK A01 T01870141  RH  074%=      5-min Rain = 0
KFR1 140923Z 17016G21KT 19/14 A299 RMK A01 T01870140  RH  074%=      5-min Rain = 0
KFR1 140924Z 16017KT 19/14 A299 RMK A01 T01870140  RH  074%=      5-min Rain = 0
KFR1 140925Z 17016G21KT 19/14 A299 RMK A01 T01870139  RH  074%=      5-min Rain = 0
KFR1 140926Z 17018KT 19/14 A299 RMK A01 T01870139  RH  074%=      5-min Rain = 0
KFR1 140927Z 16016KT 19/14 A2991 RMK A01 T01880139  RH  073%=      5-min Rain = 0
KFR1 140928Z 16014KT 19/14 A2991 RMK A01 T01880140  RH  073%=      5-min Rain = 0
KFR1 140929Z 16015G21KT 19/14 A2991 RMK A01 T01870140  RH  074%=      5-min Rain = 0
KFR1 140930Z 17016KT 19/14 A2991 RMK A01 T01870140  RH  074%=      5-min Rain = 0
KFR1 140931Z 17012KT 19/14 A2991 RMK A01 T01870140  RH  074%=      5-min Rain = 0
KFR1 140932Z 16013KT 19/14 A2991 RMK A01 T01860140  RH  075%=      5-min Rain = 0
KFR1 140933Z 16013G19KT 19/14 A2991 RMK A01 T01850140  RH  075%=      5-min Rain = 0
KFR1 140934Z 16015KT 19/14 A299 RMK A01 T01850140  RH  075%=      5-min Rain = 0
KFR1 140935Z 16013G19KT 19/14 A299 RMK A01 T01850140  RH  075%=      5-min Rain = 0
KFR1 140936Z 16014G19KT 19/14 A299 RMK A01 T01850140  RH  075%=      5-min Rain = 0
KFR1 140937Z 16016KT 18/14 A299 RMK A01 T01840140  RH  075%=      5-min Rain = 0
KFR1 140938Z 17014KT 18/14 A299 RMK A01 T01840140  RH  075%=      5-min Rain = 0
KFR1 140939Z 17015KT 18/14 A299 RMK A01 T01840140  RH  075%=      5-min Rain = 0
KFR1 140940Z 16015KT 18/14 A2991 RMK A01 T01840140  RH  075%=      5-min Rain = 0
KFR1 140941Z 17014KT 18/14 A299 RMK A01 T01840140  RH  075%=      5-min Rain = 0
KFR1 140942Z 17014G19KT 18/14 A299 RMK A01 T01840140  RH  076%=      5-min Rain = 0
KFR1 140943Z 16015G20KT 18/14 A299 RMK A01 T01840141  RH  076%=      5-min Rain = 0
KFR1 140944Z 16015G21KT 18/14 A299 RMK A01 T01840141  RH  076%=      5-min Rain = 0
KFR1 140945Z 17015KT 18/14 A299 RMK A01 T01840141  RH  076%=      5-min Rain = 0
KFR1 140946Z 17017KT 18/14 A299 RMK A01 T01830142  RH  077%=      5-min Rain = 0
KFR1 140947Z 16015KT 18/14 A299 RMK A01 T01830142  RH  077%=      5-min Rain = 0
KFR1 140948Z 17015G22KT 18/14 A299 RMK A01 T01830143  RH  077%=      5-min Rain = 0
KFR1 140949Z 17014G19KT 18/14 A299 RMK A01 T01830143  RH  077%=      5-min Rain = 0
KFR1 140950Z 17013KT 18/14 A299 RMK A01 T01830143  RH  078%=      5-min Rain = 0
KFR1 140951Z 17014G19KT 18/14 A299 RMK A01 T01820143  RH  078%=      5-min Rain = 0
KFR1 140952Z 17013KT 18/14 A299 RMK A01 T01820143  RH  078%=      5-min Rain = 0
KFR1 140953Z 18014G20KT 18/14 A299 RMK A01 T01810143  RH  078%=      5-min Rain = 0
KFR1 140954Z 17015G20KT 18/14 A299 RMK A01 T01810143  RH  079%=      5-min Rain = 0
KFR1 140955Z 17014G19KT 18/14 A299 RMK A01 T01810143  RH  078%=      5-min Rain = 0
KFR1 140956Z 17015G22KT 18/14 A299 RMK A01 T01810143  RH  079%=      5-min Rain = 0
KFR1 140957Z 17013KT 18/14 A299 RMK A01 T01810144  RH  079%=      5-min Rain = 0
KFR1 140958Z 18014KT 18/14 A299 RMK A01 T01810144  RH  079%=      5-min Rain = 0
KFR1 140959Z 17010KT 18/14 A2989 RMK A01 T01800144  RH  079%=      5-min Rain = 0
KFR1 141000Z 17014KT 18/14 A2989 RMK A01 T01800144  RH  080%=      5-min Rain = 0
KFR1 141001Z 17015KT 18/14 A2989 RMK A01 T01800144  RH  080%=      5-min Rain = 0
KFR1 141002Z 17015KT 18/14 A2989 RMK A01 T01790144  RH  080%=      5-min Rain = 0
KFR1 141003Z 18015G20KT 18/14 A2989 RMK A01 T01790144  RH  080%=      5-min Rain = 0
KFR1 141004Z 17014G19KT 18/15 A2989 RMK A01 T01790145  RH  080%=      5-min Rain = 0
KFR1 141005Z 18011KT 18/15 A2989 RMK A01 T01790145  RH  080%=      5-min Rain = 0
KFR1 141006Z 18012KT 18/15 A2989 RMK A01 T01790145  RH  081%=      5-min Rain = 0
KFR1 141007Z 18013KT 18/15 A2989 RMK A01 T01780145  RH  081%=      5-min Rain = 0
KFR1 141008Z 18014KT 18/15 A2989 RMK A01 T01780145  RH  081%=      5-min Rain = 0
KFR1 141009Z 18012KT 18/15 A2989 RMK A01 T01790145  RH  081%=      5-min Rain = 0
KFR1 141010Z 19010KT 18/15 A2989 RMK A01 T01790145  RH  081%=      5-min Rain = 0
KFR1 141011Z 19011KT 18/15 A2989 RMK A01 T01790146  RH  081%=      5-min Rain = 0
KFR1 141012Z 19011KT 18/15 A299 RMK A01 T01790146  RH  081%=      5-min Rain = 0
KFR1 141013Z 19011KT 18/15 A2989 RMK A01 T01790146  RH  081%=      5-min Rain = 0
KFR1 141014Z 19009KT 18/15 A2989 RMK A01 T01780146  RH  081%=      5-min Rain = 0
KFR1 141015Z 19013G18KT 18/15 A2989 RMK A01 T01780146  RH  082%=      5-min Rain = 0
KFR1 141016Z 18010KT 18/15 A2989 RMK A01 T01770146  RH  082%=      5-min Rain = 0
KFR1 141017Z 18010KT 18/15 A2989 RMK A01 T01770146  RH  082%=      5-min Rain = 0
KFR1 141018Z 19011KT 18/15 A2989 RMK A01 T01770146  RH  082%=      5-min Rain = 0
KFR1 141019Z 19009KT 18/15 A2989 RMK A01 T01770146  RH  082%=      5-min Rain = 0
KFR1 141020Z 19010KT 18/15 A2989 RMK A01 T01770146  RH  082%=      5-min Rain = 0
KFR1 141021Z 19008KT 18/15 A299 RMK A01 T01770146  RH  082%=      5-min Rain = 0
KFR1 141022Z 18008KT 18/15 A299 RMK A01 T01760146  RH  083%=      5-min Rain = 0
KFR1 141023Z 19010G16KT 18/15 A299 RMK A01 T01760147  RH  083%=      5-min Rain = 0
KFR1 141024Z 19011KT 18/15 A299 RMK A01 T01760146  RH  083%=      5-min Rain = 0
KFR1 141025Z 19009KT 18/15 A299 RMK A01 T01760146  RH  083%=      5-min Rain = 0
KFR1 141026Z 18008KT 18/15 A299 RMK A01 T01760147  RH  083%=      5-min Rain = 0
KFR1 141027Z 19009KT 18/15 A299 RMK A01 T01760147  RH  083%=      5-min Rain = 0
KFR1 141028Z 18009KT 18/15 A299 RMK A01 T01760147  RH  083%=      5-min Rain = 0
KFR1 141029Z 18011KT 18/15 A299 RMK A01 T01760147  RH  083%=      5-min Rain = 0
KFR1 141030Z 18007KT 18/15 A299 RMK A01 T01760147  RH  083%=      5-min Rain = 0
KFR1 141031Z 18007KT 18/15 A299 RMK A01 T01760147  RH  083%=      5-min Rain = 0
KFR1 141032Z 19008KT 18/15 A299 RMK A01 T01750147  RH  084%=      5-min Rain = 0
KFR1 141033Z 18008KT 18/15 A299 RMK A01 T01750147  RH  084%=      5-min Rain = 0
KFR1 141034Z 18008KT 17/15 A299 RMK A01 T01740147  RH  084%=      5-min Rain = 0
KFR1 141035Z 19006KT 17/15 A299 RMK A01 T01740147  RH  084%=      5-min Rain = 0
KFR1 141036Z 19007KT 17/15 A299 RMK A01 T01740147  RH  084%=      5-min Rain = 0
KFR1 141037Z 19006KT 17/15 A299 RMK A01 T01740147  RH  084%=      5-min Rain = 0
KFR1 141038Z 18006KT 17/15 A299 RMK A01 T01730147  RH  084%=      5-min Rain = 0
KFR1 141039Z 19005KT 17/15 A299 RMK A01 T01730147  RH  085%=      5-min Rain = 0
KFR1 141040Z 18007KT 17/15 A299 RMK A01 T01730147  RH  085%=      5-min Rain = 0
KFR1 141041Z 18006KT 17/15 A299 RMK A01 T01730147  RH  085%=      5-min Rain = 0
KFR1 141042Z 18002KT 17/15 A299 RMK A01 T01730147  RH  085%=      5-min Rain = 0
KFR1 141043Z 17002KT 17/15 A2991 RMK A01 T01730147  RH  085%=      5-min Rain = 0
KFR1 141044Z 19003KT 17/15 A2991 RMK A01 T01720147  RH  085%=      5-min Rain = 0
KFR1 141045Z 17002KT 17/15 A2991 RMK A01 T01720147  RH  085%=      5-min Rain = 0
KFR1 141046Z 17002KT 17/15 A2991 RMK A01 T01720148  RH  086%=      5-min Rain = 0
KFR1 141047Z 11001KT 17/15 A2991 RMK A01 T01720147  RH  086%=      5-min Rain = 0
KFR1 141048Z 12002KT 17/15 A2991 RMK A01 T01710147  RH  086%=      5-min Rain = 0
KFR1 141049Z 13004KT 17/15 A2991 RMK A01 T01710147  RH  086%=      5-min Rain = 0
KFR1 141050Z 13004KT 17/15 A2991 RMK A01 T01710147  RH  086%=      5-min Rain = 0
KFR1 141051Z 11003KT 17/15 A2991 RMK A01 T01720147  RH  085%=      5-min Rain = 0
KFR1 141052Z 05002KT 17/15 A2991 RMK A01 T01720147  RH  085%=      5-min Rain = 0
KFR1 141053Z 05003KT 17/15 A2991 RMK A01 T01720147  RH  085%=      5-min Rain = 0
KFR1 141054Z 07003KT 17/15 A2991 RMK A01 T01710146  RH  086%=      5-min Rain = 0
KFR1 141055Z 06003KT 17/15 A2991 RMK A01 T01700147  RH  086%=      5-min Rain = 0
KFR1 141056Z 08002KT 17/15 A2992 RMK A01 T01690146  RH  086%=      5-min Rain = 0
KFR1 141057Z 04003KT 17/15 A2992 RMK A01 T01690146  RH  086%=      5-min Rain = 0
KFR1 141058Z 05003KT 17/15 A2992 RMK A01 T01690146  RH  087%=      5-min Rain = 0
KFR1 141059Z 05003KT 17/15 A2992 RMK A01 T01680146  RH  087%=      5-min Rain = 0
KFR1 141100Z 05005KT 17/15 A2992 RMK A01 T01670146  RH  087%=      5-min Rain = 0
KFR1 141101Z 05005KT 17/15 A2992 RMK A01 T01670145  RH  087%=      5-min Rain = 0
KFR1 141102Z 03006KT 17/15 A2992 RMK A01 T01660145  RH  088%=      5-min Rain = 0
KFR1 141103Z 02005KT 17/15 A2992 RMK A01 T01660145  RH  088%=      5-min Rain = 0
KFR1 141104Z 03004KT 17/15 A2992 RMK A01 T01660145  RH  088%=      5-min Rain = 0
KFR1 141105Z 02004KT 17/15 A2992 RMK A01 T01660146  RH  088%=      5-min Rain = 0
KFR1 141106Z 01003KT 17/15 A2992 RMK A01 T01660146  RH  088%=      5-min Rain = 0
KFR1 141107Z 01003KT 17/15 A2992 RMK A01 T01660146  RH  088%=      5-min Rain = 0
KFR1 141108Z 02003KT 17/15 A2992 RMK A01 T01650146  RH  088%=      5-min Rain = 0
KFR1 141109Z 31002KT 17/15 A2992 RMK A01 T01660146  RH  088%=      5-min Rain = 0
KFR1 141110Z 03001KT 17/15 A2992 RMK A01 T01660146  RH  088%=      5-min Rain = 0
KFR1 141111Z 03001KT 17/15 A2992 RMK A01 T01660146  RH  088%=      5-min Rain = 0
KFR1 141112Z 04000KT 17/15 A2992 RMK A01 T01660146  RH  088%=      5-min Rain = 0
KFR1 141113Z 10000KT 17/15 A2992 RMK A01 T01660146  RH  088%=      5-min Rain = 0
KFR1 141114Z 13000KT 17/15 A2992 RMK A01 T01660145  RH  088%=      5-min Rain = 0
KFR1 141115Z 14001KT 17/15 A2992 RMK A01 T01660145  RH  088%=      5-min Rain = 0
KFR1 141116Z 16002KT 17/15 A2992 RMK A01 T01660145  RH  088%=      5-min Rain = 0
KFR1 141117Z 16003KT 17/15 A2992 RMK A01 T01660145  RH  087%=      5-min Rain = 0
KFR1 141118Z 18003KT 17/15 A2992 RMK A01 T01660145  RH  087%=      5-min Rain = 0
KFR1 141119Z 19003KT 17/14 A2992 RMK A01 T01660144  RH  087%=      5-min Rain = 0
KFR1 141120Z 19004KT 16/14 A2992 RMK A01 T01640144  RH  088%=      5-min Rain = 0
KFR1 141121Z 19003KT 16/14 A2992 RMK A01 T01620144  RH  089%=      5-min Rain = 0
KFR1 141122Z 19003KT 16/14 A2992 RMK A01 T01610144  RH  089%=      5-min Rain = 0
KFR1 141123Z 20003KT 16/14 A2992 RMK A01 T01600144  RH  090%=      5-min Rain = 0
KFR1 141124Z 20003KT 16/15 A2992 RMK A01 T01600145  RH  090%=      5-min Rain = 0
KFR1 141125Z 21003KT 16/15 A2992 RMK A01 T01610145  RH  090%=      5-min Rain = 0
KFR1 141126Z 22003KT 16/15 A2992 RMK A01 T01610145  RH  090%=      5-min Rain = 0
KFR1 141127Z 22003KT 16/15 A2992 RMK A01 T01610145  RH  090%=      5-min Rain = 0
KFR1 141128Z 21003KT 16/15 A2992 RMK A01 T01620145  RH  090%=      5-min Rain = 0
KFR1 141129Z 20003KT 16/15 A2992 RMK A01 T01620145  RH  090%=      5-min Rain = 0
KFR1 141130Z 21004KT 16/15 A2992 RMK A01 T01620145  RH  090%=      5-min Rain = 0
KFR1 141131Z 21005KT 16/15 A2992 RMK A01 T01620146  RH  090%=      5-min Rain = 0
KFR1 141132Z 21006KT 16/15 A2992 RMK A01 T01630146  RH  090%=      5-min Rain = 0
KFR1 141133Z 21006KT 17/15 A2992 RMK A01 T01650148  RH  090%=      5-min Rain = 0
KFR1 141134Z 21007KT 17/15 A2992 RMK A01 T01660148  RH  089%=      5-min Rain = 0
KFR1 141135Z 20007KT 17/15 A2992 RMK A01 T01670148  RH  089%=      5-min Rain = 0
KFR1 141136Z 20007KT 17/15 A2992 RMK A01 T01670148  RH  089%=      5-min Rain = 0
KFR1 141137Z 20009KT 17/15 A2991 RMK A01 T01670148  RH  089%=      5-min Rain = 0
KFR1 141138Z 19009KT 17/15 A2991 RMK A01 T01670148  RH  089%=      5-min Rain = 0
KFR1 141139Z 19009KT 17/15 A2991 RMK A01 T01670148  RH  089%=      5-min Rain = 0
KFR1 141140Z 19010KT 17/15 A2991 RMK A01 T01670149  RH  089%=      5-min Rain = 0
KFR1 141141Z 19011KT 17/15 A2991 RMK A01 T01660149  RH  089%=      5-min Rain = 0
KFR1 141142Z 19010KT 17/15 A2991 RMK A01 T01670149  RH  089%=      5-min Rain = 0
KFR1 141143Z 19010KT 17/15 A299 RMK A01 T01670149  RH  089%=      5-min Rain = 0
KFR1 141144Z 20011KT 17/15 A299 RMK A01 T01680150  RH  089%=      5-min Rain = 0
KFR1 141145Z 20013KT 17/15 A299 RMK A01 T01680150  RH  089%=      5-min Rain = 0
KFR1 141146Z 20013KT 17/15 A299 RMK A01 T01690150  RH  089%=      5-min Rain = 0
KFR1 141147Z 20013KT 17/15 A299 RMK A01 T01710151  RH  088%=      5-min Rain = 0
KFR1 141148Z 20013KT 17/15 A299 RMK A01 T01710151  RH  088%=      5-min Rain = 0
KFR1 141149Z 20013KT 17/15 A299 RMK A01 T01720151  RH  087%=      5-min Rain = 0
KFR1 141150Z 19016G21KT 17/15 A2989 RMK A01 T01720150  RH  087%=      5-min Rain = 0
KFR1 141151Z 19016G21KT 17/15 A2989 RMK A01 T01730150  RH  086%=      5-min Rain = 0
KFR1 141152Z 19018KT 17/15 A2989 RMK A01 T01740150  RH  086%=      5-min Rain = 0
KFR1 141153Z 19018KT 17/15 A2989 RMK A01 T01740149  RH  085%=      5-min Rain = 0
KFR1 141154Z 19018G24KT 18/15 A2989 RMK A01 T01750149  RH  085%=      5-min Rain = 0
KFR1 141155Z 19015KT 18/15 A2989 RMK A01 T01760149  RH  084%=      5-min Rain = 0
KFR1 141156Z 20014G19KT 18/15 A2989 RMK A01 T01760149  RH  084%=      5-min Rain = 0
KFR1 141157Z 20013KT 18/15 A2989 RMK A01 T01750149  RH  085%=      5-min Rain = 0
KFR1 141158Z 20015KT 17/15 A2989 RMK A01 T01740149  RH  085%=      5-min Rain = 0
KFR1 141159Z 19015KT 17/15 A2988 RMK A01 T01740149  RH  085%=      5-min Rain = 0
KFR1 141200Z 20015KT 17/15 A2988 RMK A01 T01740148  RH  085%=      5-min Rain = 0
KFR1 141201Z 19015KT 17/15 A2988 RMK A01 T01740148  RH  085%=      5-min Rain = 0
KFR1 141202Z 19014KT 17/15 A2988 RMK A01 T01740148  RH  085%=      5-min Rain = 0
KFR1 141203Z 19016KT 17/15 A2988 RMK A01 T01740148  RH  085%=      5-min Rain = 0
KFR1 141204Z 19014G19KT 17/15 A2988 RMK A01 T01740148  RH  085%=      5-min Rain = 0
KFR1 141205Z 19015KT 17/15 A2988 RMK A01 T01740147  RH  084%=      5-min Rain = 0
KFR1 141206Z 19015KT 17/15 A2988 RMK A01 T01740147  RH  084%=      5-min Rain = 0
KFR1 141207Z 19012G17KT 17/15 A2989 RMK A01 T01740146  RH  084%=      5-min Rain = 0
KFR1 141208Z 20012G17KT 17/15 A2989 RMK A01 T01740146  RH  084%=      5-min Rain = 0
KFR1 141209Z 19011KT 17/15 A2989 RMK A01 T01740146  RH  084%=      5-min Rain = 0
KFR1 141210Z 19011KT 17/15 A2989 RMK A01 T01740146  RH  084%=      5-min Rain = 0
KFR1 141211Z 20007KT 17/15 A299 RMK A01 T01740145  RH  084%=      5-min Rain = 0
KFR1 141212Z 20011G16KT 17/15 A299 RMK A01 T01740146  RH  084%=      5-min Rain = 0
KFR1 141213Z 20010G15KT 17/15 A299 RMK A01 T01740145  RH  083%=      5-min Rain = 0
KFR1 141214Z 21011KT 17/15 A299 RMK A01 T01740145  RH  083%=      5-min Rain = 0
KFR1 141215Z 20011KT 17/15 A299 RMK A01 T01740145  RH  083%=      5-min Rain = 0
KFR1 141216Z 19010KT 17/15 A2989 RMK A01 T01740145  RH  083%=      5-min Rain = 0
KFR1 141217Z 20012G18KT 17/15 A2989 RMK A01 T01740145  RH  083%=      5-min Rain = 0
KFR1 141218Z 19014KT 17/14 A2989 RMK A01 T01730144  RH  083%=      5-min Rain = 0
KFR1 141219Z 20013G18KT 17/14 A2988 RMK A01 T01730144  RH  083%=      5-min Rain = 0
KFR1 141220Z 20015G20KT 17/14 A2988 RMK A01 T01730144  RH  083%=      5-min Rain = 0
KFR1 141221Z 19017KT 17/14 A2988 RMK A01 T01730143  RH  083%=      5-min Rain = 0
KFR1 141222Z 20013KT 17/14 A2988 RMK A01 T01740143  RH  082%=      5-min Rain = 0
KFR1 141223Z 20012G17KT 17/14 A2988 RMK A01 T01740144  RH  083%=      5-min Rain = 0
KFR1 141224Z 19014G20KT 17/14 A2988 RMK A01 T01740144  RH  083%=      5-min Rain = 0
KFR1 141225Z 20013KT 17/14 A2989 RMK A01 T01740144  RH  083%=      5-min Rain = 0
KFR1 141226Z 20016KT 17/14 A2989 RMK A01 T01740144  RH  083%=      5-min Rain = 0
KFR1 141227Z 21016G22KT 17/14 A2989 RMK A01 T01740143  RH  082%=      5-min Rain = 0
KFR1 141228Z 21015KT 17/14 A2989 RMK A01 T01740144  RH  082%=      5-min Rain = 0
KFR1 141229Z 21012G19KT 17/14 A2989 RMK A01 T01740144  RH  082%=      5-min Rain = 0
KFR1 141230Z 21012KT 17/14 A2989 RMK A01 T01740144  RH  083%=      5-min Rain = 0
KFR1 141231Z 21016G21KT 17/14 A2989 RMK A01 T01730144  RH  083%=      5-min Rain = 0
KFR1 141232Z 21015KT 17/14 A2989 RMK A01 T01730144  RH  083%=      5-min Rain = 0
KFR1 141233Z 21016G21KT 17/14 A2988 RMK A01 T01730143  RH  083%=      5-min Rain = 0
KFR1 141234Z 21012KT 17/14 A2989 RMK A01 T01730144  RH  083%=      5-min Rain = 0
KFR1 141235Z 21016G21KT 17/14 A2988 RMK A01 T01730144  RH  083%=      5-min Rain = 0
KFR1 141236Z 21013G18KT 17/14 A2989 RMK A01 T01730144  RH  083%=      5-min Rain = 0
KFR1 141237Z 21012KT 17/14 A2989 RMK A01 T01730144  RH  083%=      5-min Rain = 0
KFR1 141238Z 22012KT 17/15 A2989 RMK A01 T01730145  RH  083%=      5-min Rain = 0
KFR1 141239Z 22010KT 17/15 A2989 RMK A01 T01730145  RH  083%=      5-min Rain = 0
KFR1 141240Z 21011KT 17/15 A2989 RMK A01 T01730145  RH  084%=      5-min Rain = 0
KFR1 141241Z 21009KT 17/15 A2989 RMK A01 T01730145  RH  083%=      5-min Rain = 0
KFR1 141242Z 21010G15KT 17/15 A2989 RMK A01 T01730146  RH  084%=      5-min Rain = 0
KFR1 141243Z 21012KT 17/15 A2989 RMK A01 T01730145  RH  084%=      5-min Rain = 0
KFR1 141244Z 22011KT 17/15 A2989 RMK A01 T01730145  RH  084%=      5-min Rain = 0
KFR1 141245Z 22011KT 17/15 A2989 RMK A01 T01730145  RH  083%=      5-min Rain = 0
KFR1 141246Z 21013KT 17/15 A2989 RMK A01 T01730145  RH  083%=      5-min Rain = 0
KFR1 141247Z 21012KT 17/15 A2989 RMK A01 T01740145  RH  083%=      5-min Rain = 0
KFR1 141248Z 21011KT 17/15 A2989 RMK A01 T01740145  RH  083%=      5-min Rain = 0
KFR1 141249Z 21011KT 17/15 A2989 RMK A01 T01740146  RH  083%=      5-min Rain = 0
KFR1 141250Z 21012KT 17/15 A2989 RMK A01 T01740146  RH  083%=      5-min Rain = 0
KFR1 141251Z 21012KT 17/15 A2989 RMK A01 T01740146  RH  083%=      5-min Rain = 0
KFR1 141252Z 21013KT 17/15 A2989 RMK A01 T01740146  RH  083%=      5-min Rain = 0
KFR1 141253Z 21013KT 18/15 A2989 RMK A01 T01750146  RH  083%=      5-min Rain = 0
KFR1 141254Z 21011KT 18/15 A2989 RMK A01 T01750146  RH  083%=      5-min Rain = 0
KFR1 141255Z 21014KT 18/15 A2989 RMK A01 T01750146  RH  083%=      5-min Rain = 0
KFR1 141256Z 21013KT 18/15 A2989 RMK A01 T01750146  RH  083%=      5-min Rain = 0
KFR1 141257Z 21012KT 18/15 A2989 RMK A01 T01760147  RH  083%=      5-min Rain = 0
KFR1 141258Z 21011KT 18/15 A2989 RMK A01 T01760147  RH  083%=      5-min Rain = 0
KFR1 141259Z 21014KT 18/15 A2989 RMK A01 T01770147  RH  083%=      5-min Rain = 0
KFR1 141300Z 21012KT 18/15 A2989 RMK A01 T01770147  RH  082%=      5-min Rain = 0
KFR1 141301Z 21010KT 18/15 A2989 RMK A01 T01780147  RH  082%=      5-min Rain = 0
KFR1 141302Z 21011KT 18/15 A2989 RMK A01 T01780148  RH  082%=      5-min Rain = 0
KFR1 141303Z 20012KT 18/15 A2989 RMK A01 T01780148  RH  082%=      5-min Rain = 0
KFR1 141304Z 20012G17KT 18/15 A2989 RMK A01 T01780148  RH  082%=      5-min Rain = 0
KFR1 141305Z 21013KT 18/15 A2989 RMK A01 T01790149  RH  082%=      5-min Rain = 0
KFR1 141306Z 21011KT 18/15 A2989 RMK A01 T01800148  RH  082%=      5-min Rain = 0
KFR1 141307Z 21012KT 18/15 A2989 RMK A01 T01810149  RH  082%=      5-min Rain = 0
KFR1 141308Z 21010KT 18/15 A2989 RMK A01 T01820149  RH  081%=      5-min Rain = 0
KFR1 141309Z 21010KT 18/15 A2989 RMK A01 T01830150  RH  081%=      5-min Rain = 0
KFR1 141310Z 21011KT 18/15 A2989 RMK A01 T01830151  RH  081%=      5-min Rain = 0
KFR1 141311Z 21011KT 18/15 A2989 RMK A01 T01840151  RH  081%=      5-min Rain = 0
KFR1 141312Z 21012KT 19/15 A2989 RMK A01 T01850151  RH  080%=      5-min Rain = 0
KFR1 141313Z 21013KT 19/15 A2989 RMK A01 T01860151  RH  080%=      5-min Rain = 0
KFR1 141314Z 21013KT 19/15 A2989 RMK A01 T01860151  RH  080%=      5-min Rain = 0
KFR1 141315Z 21011KT 19/15 A2989 RMK A01 T01870152  RH  080%=      5-min Rain = 0
KFR1 141316Z 21010KT 19/15 A2989 RMK A01 T01870153  RH  080%=      5-min Rain = 0
KFR1 141317Z 21011KT 19/15 A2989 RMK A01 T01880153  RH  080%=      5-min Rain = 0
KFR1 141318Z 21014KT 19/15 A2988 RMK A01 T01890154  RH  080%=      5-min Rain = 0
KFR1 141319Z 21013KT 19/15 A2988 RMK A01 T01900153  RH  079%=      5-min Rain = 0
KFR1 141320Z 21013KT 19/15 A2988 RMK A01 T01910154  RH  079%=      5-min Rain = 0
KFR1 141321Z 20017G22KT 19/15 A2988 RMK A01 T01910153  RH  078%=      5-min Rain = 0
KFR1 141322Z 20015KT 19/15 A2988 RMK A01 T01910153  RH  078%=      5-min Rain = 0
KFR1 141323Z 20014KT 19/15 A2988 RMK A01 T01920154  RH  079%=      5-min Rain = 0
KFR1 141324Z 21014G19KT 19/16 A2988 RMK A01 T01920155  RH  079%=      5-min Rain = 0
KFR1 141325Z 21015KT 19/15 A2988 RMK A01 T01910154  RH  079%=      5-min Rain = 0
KFR1 141326Z 20013KT 19/15 A2988 RMK A01 T01910154  RH  079%=      5-min Rain = 0
KFR1 141327Z 21012KT 19/15 A2988 RMK A01 T01910154  RH  079%=      5-min Rain = 0
KFR1 141328Z 21016KT 19/16 A2988 RMK A01 T01920155  RH  079%=      5-min Rain = 0
KFR1 141329Z 21018KT 19/16 A2988 RMK A01 T01930155  RH  078%=      5-min Rain = 0
KFR1 141330Z 21013KT 19/16 A2988 RMK A01 T01940155  RH  078%=      5-min Rain = 0
KFR1 141331Z 21012KT 19/16 A2988 RMK A01 T01940156  RH  078%=      5-min Rain = 0
KFR1 141332Z 22013KT 19/16 A2988 RMK A01 T01940156  RH  078%=      5-min Rain = 0
KFR1 141333Z 22012KT 20/16 A2988 RMK A01 T01950157  RH  078%=      5-min Rain = 0
KFR1 141334Z 21012KT 20/16 A2988 RMK A01 T01960157  RH  078%=      5-min Rain = 0
KFR1 141335Z 21015KT 20/16 A2988 RMK A01 T01960157  RH  078%=      5-min Rain = 0
KFR1 141336Z 22013KT 20/16 A2988 RMK A01 T01960157  RH  078%=      5-min Rain = 0
KFR1 141337Z 21011KT 20/16 A2988 RMK A01 T01970157  RH  078%=      5-min Rain = 0
KFR1 141338Z 20013KT 20/16 A2988 RMK A01 T01970158  RH  078%=      5-min Rain = 0
KFR1 141339Z 21011KT 20/16 A2988 RMK A01 T01980158  RH  078%=      5-min Rain = 0
KFR1 141340Z 21011KT 20/16 A2988 RMK A01 T01990160  RH  078%=      5-min Rain = 0
KFR1 141341Z 21013KT 20/16 A2988 RMK A01 T02000159  RH  077%=      5-min Rain = 0
KFR1 141342Z 21013KT 20/16 A2988 RMK A01 T02000159  RH  077%=      5-min Rain = 0
KFR1 141343Z 22014KT 20/16 A2988 RMK A01 T02010160  RH  077%=      5-min Rain = 0
KFR1 141344Z 21014KT 20/16 A2988 RMK A01 T02010160  RH  077%=      5-min Rain = 0
KFR1 141345Z 21013KT 20/16 A2988 RMK A01 T02020160  RH  077%=      5-min Rain = 0
KFR1 141346Z 21016KT 20/16 A2988 RMK A01 T02030160  RH  076%=      5-min Rain = 0
KFR1 141347Z 21013KT 20/16 A2988 RMK A01 T02030160  RH  076%=      5-min Rain = 0
KFR1 141348Z 22012KT 20/16 A2988 RMK A01 T02030161  RH  077%=      5-min Rain = 0
KFR1 141349Z 21016KT 20/16 A2987 RMK A01 T02040160  RH  076%=      5-min Rain = 0
KFR1 141350Z 21015KT 20/16 A2988 RMK A01 T02040160  RH  076%=      5-min Rain = 0
KFR1 141351Z 20015G22KT 20/16 A2987 RMK A01 T02040161  RH  076%=      5-min Rain = 0
KFR1 141352Z 21016KT 20/16 A2987 RMK A01 T02040161  RH  076%=      5-min Rain = 0
KFR1 141353Z 21017KT 20/16 A2987 RMK A01 T02040161  RH  076%=      5-min Rain = 0
KFR1 141354Z 21012KT 20/16 A2987 RMK A01 T02040161  RH  076%=      5-min Rain = 0
KFR1 141355Z 20013KT 21/16 A2987 RMK A01 T02050162  RH  077%=      5-min Rain = 0
KFR1 141356Z 22014G19KT 21/16 A2987 RMK A01 T02050162  RH  076%=      5-min Rain = 0
KFR1 141357Z 21016KT 21/16 A2987 RMK A01 T02050162  RH  076%=      5-min Rain = 0
KFR1 141358Z 21013KT 21/16 A2987 RMK A01 T02060162  RH  076%=      5-min Rain = 0
KFR1 141359Z 21012KT 21/16 A2987 RMK A01 T02060162  RH  076%=      5-min Rain = 0
KFR1 141400Z 21011KT 21/16 A2987 RMK A01 T02060163  RH  076%=      5-min Rain = 0
KFR1 141401Z 22014KT 21/16 A2987 RMK A01 T02070164  RH  076%=      5-min Rain = 0
KFR1 141402Z 22013KT 21/16 A2987 RMK A01 T02070163  RH  076%=      5-min Rain = 0
KFR1 141403Z 21011KT 21/17 A2987 RMK A01 T02080165  RH  076%=      5-min Rain = 0
KFR1 141404Z 21014G19KT 21/17 A2987 RMK A01 T02090166  RH  076%=      5-min Rain = 0
KFR1 141405Z 21014KT 21/16 A2987 RMK A01 T02100164  RH  075%=      5-min Rain = 0
KFR1 141406Z 21014KT 21/17 A2987 RMK A01 T02100165  RH  075%=      5-min Rain = 0
KFR1 141407Z 21015KT 21/17 A2987 RMK A01 T02110165  RH  075%=      5-min Rain = 0
KFR1 141408Z 22012KT 21/17 A2987 RMK A01 T02110166  RH  075%=      5-min Rain = 0
KFR1 141409Z 22015KT 21/17 A2987 RMK A01 T02110167  RH  076%=      5-min Rain = 0
KFR1 141410Z 21014KT 21/17 A2987 RMK A01 T02120166  RH  075%=      5-min Rain = 0
KFR1 141411Z 21012G18KT 21/17 A2987 RMK A01 T02130167  RH  075%=      5-min Rain = 0
KFR1 141412Z 21014KT 21/17 A2987 RMK A01 T02130167  RH  075%=      5-min Rain = 0
KFR1 141413Z 21012G18KT 21/17 A2987 RMK A01 T02140168  RH  075%=      5-min Rain = 0
KFR1 141414Z 21016G22KT 22/17 A2987 RMK A01 T02150168  RH  074%=      5-min Rain = 0
KFR1 141415Z 22013KT 22/17 A2987 RMK A01 T02150167  RH  074%=      5-min Rain = 0
KFR1 141416Z 22016KT 22/17 A2987 RMK A01 T02160168  RH  074%=      5-min Rain = 0
KFR1 141417Z 21016KT 22/17 A2987 RMK A01 T02160167  RH  074%=      5-min Rain = 0
KFR1 141418Z 21014KT 22/17 A2986 RMK A01 T02160168  RH  074%=      5-min Rain = 0
KFR1 141419Z 21014KT 22/17 A2986 RMK A01 T02170169  RH  074%=      5-min Rain = 0
KFR1 141420Z 21013KT 22/17 A2986 RMK A01 T02180169  RH  074%=      5-min Rain = 0
KFR1 141421Z 21013KT 22/17 A2986 RMK A01 T02180170  RH  074%=      5-min Rain = 0
KFR1 141422Z 21013KT 22/17 A2986 RMK A01 T02190170  RH  074%=      5-min Rain = 0
KFR1 141423Z 21017KT 22/17 A2986 RMK A01 T02200169  RH  073%=      5-min Rain = 0
KFR1 141424Z 21014KT 22/17 A2986 RMK A01 T02200168  RH  073%=      5-min Rain = 0
KFR1 141425Z 21017KT 22/17 A2986 RMK A01 T02200169  RH  073%=      5-min Rain = 0
KFR1 141426Z 20015KT 22/17 A2986 RMK A01 T02200169  RH  072%=      5-min Rain = 0
KFR1 141427Z 22014KT 22/17 A2986 RMK A01 T02210170  RH  073%=      5-min Rain = 0
KFR1 141428Z 21014G19KT 22/17 A2986 RMK A01 T02220170  RH  072%=      5-min Rain = 0
KFR1 141429Z 22014KT 22/17 A2986 RMK A01 T02220170  RH  072%=      5-min Rain = 0
KFR1 141430Z 22012KT 22/17 A2986 RMK A01 T02230172  RH  073%=      5-min Rain = 0
KFR1 141431Z 21010KT 22/17 A2986 RMK A01 T02240171  RH  072%=      5-min Rain = 0
KFR1 141432Z 21012KT 22/17 A2986 RMK A01 T02240172  RH  072%=      5-min Rain = 0
KFR1 141433Z 21015KT 23/17 A2986 RMK A01 T02260171  RH  071%=      5-min Rain = 0
KFR1 141434Z 22017KT 23/17 A2986 RMK A01 T02260170  RH  071%=      5-min Rain = 0
KFR1 141435Z 22018KT 23/17 A2986 RMK A01 T02250170  RH  071%=      5-min Rain = 0
KFR1 141436Z 22014KT 22/17 A2986 RMK A01 T02240170  RH  071%=      5-min Rain = 0
KFR1 141437Z 22016KT 23/17 A2986 RMK A01 T02250171  RH  071%=      5-min Rain = 0
KFR1 141438Z 22014KT 22/17 A2986 RMK A01 T02240169  RH  071%=      5-min Rain = 0
KFR1 141439Z 22015KT 22/17 A2986 RMK A01 T02240170  RH  071%=      5-min Rain = 0
KFR1 141440Z 22011KT 22/17 A2986 RMK A01 T02240172  RH  072%=      5-min Rain = 0
KFR1 141441Z 22012KT 23/17 A2986 RMK A01 T02250172  RH  072%=      5-min Rain = 0
KFR1 141442Z 23010G15KT 23/17 A2987 RMK A01 T02260174  RH  072%=      5-min Rain = 0
KFR1 141443Z 22014KT 23/17 A2987 RMK A01 T02270172  RH  071%=      5-min Rain = 0
KFR1 141444Z 22016KT 23/17 A2987 RMK A01 T02280172  RH  071%=      5-min Rain = 0
KFR1 141445Z 22017KT 23/17 A2987 RMK A01 T02280171  RH  070%=      5-min Rain = 0
KFR1 141446Z 23015G21KT 23/17 A2986 RMK A01 T02280171  RH  070%=      5-min Rain = 0
KFR1 141447Z 23012KT 23/17 A2987 RMK A01 T02280172  RH  070%=      5-min Rain = 0
KFR1 141448Z 22011KT 23/17 A2987 RMK A01 T02290172  RH  071%=      5-min Rain = 0
KFR1 141449Z 23013KT 23/17 A2987 RMK A01 T02300173  RH  070%=      5-min Rain = 0
KFR1 141450Z 23014KT 23/17 A2986 RMK A01 T02300173  RH  070%=      5-min Rain = 0
KFR1 141451Z 23014G20KT 23/17 A2986 RMK A01 T02300173  RH  070%=      5-min Rain = 0
KFR1 141452Z 22015KT 23/17 A2986 RMK A01 T02310172  RH  070%=      5-min Rain = 0
KFR1 141453Z 22015KT 23/17 A2986 RMK A01 T02310172  RH  069%=      5-min Rain = 0
KFR1 141454Z 22011KT 23/17 A2986 RMK A01 T02320173  RH  069%=      5-min Rain = 0
KFR1 141455Z 22011KT 23/17 A2986 RMK A01 T02320174  RH  070%=      5-min Rain = 0
KFR1 141456Z 23011KT 23/18 A2986 RMK A01 T02330176  RH  070%=      5-min Rain = 0
KFR1 141457Z 23015KT 23/18 A2986 RMK A01 T02330175  RH  070%=      5-min Rain = 0
KFR1 141458Z 22010KT 23/18 A2986 RMK A01 T02330175  RH  070%=      5-min Rain = 0
KFR1 141459Z 22009KT 23/18 A2987 RMK A01 T02340176  RH  070%=      5-min Rain = 0
KFR1 141500Z 23009KT 24/18 A2987 RMK A01 T02350176  RH  069%=      5-min Rain = 0
KFR1 141501Z 22010KT 24/18 A2987 RMK A01 T02350178  RH  070%=      5-min Rain = 0
KFR1 141502Z 24010KT 24/18 A2987 RMK A01 T02360176  RH  069%=      5-min Rain = 0
KFR1 141503Z 24012KT 24/18 A2987 RMK A01 T02370178  RH  070%=      5-min Rain = 0
KFR1 141504Z 23011KT 24/18 A2987 RMK A01 T02370175  RH  068%=      5-min Rain = 0
KFR1 141505Z 25008G14KT 24/18 A2987 RMK A01 T02370175  RH  068%=      5-min Rain = 0
KFR1 141506Z 25007KT 24/18 A2988 RMK A01 T02370175  RH  068%=      5-min Rain = 0
KFR1 141507Z 25011KT 24/18 A2988 RMK A01 T02370176  RH  069%=      5-min Rain = 0
KFR1 141508Z 25009KT 24/18 A2988 RMK A01 T02390178  RH  069%=      5-min Rain = 0
KFR1 141509Z 25010KT 24/18 A2988 RMK A01 T02400176  RH  067%=      5-min Rain = 0
KFR1 141510Z 26009KT 24/18 A2988 RMK A01 T02400177  RH  068%=      5-min Rain = 0
KFR1 141511Z 26006KT 24/18 A2988 RMK A01 T02410176  RH  067%=      5-min Rain = 0
KFR1 141512Z 27005KT 24/18 A2988 RMK A01 T02410180  RH  069%=      5-min Rain = 0
KFR1 141513Z 26005KT 24/18 A2988 RMK A01 T02420181  RH  069%=      5-min Rain = 0
KFR1 141514Z 26008KT 24/18 A2988 RMK A01 T02430181  RH  068%=      5-min Rain = 0
KFR1 141515Z 26010KT 24/18 A2988 RMK A01 T02430176  RH  066%=      5-min Rain = 0
KFR1 141516Z 24014KT 24/18 A2988 RMK A01 T02420176  RH  067%=      5-min Rain = 0
KFR1 141517Z 24010KT 24/18 A2988 RMK A01 T02410176  RH  067%=      5-min Rain = 0
KFR1 141518Z 25008KT 24/18 A2988 RMK A01 T02410178  RH  067%=      5-min Rain = 0
KFR1 141519Z 25012KT 24/18 A2988 RMK A01 T02430180  RH  068%=      5-min Rain = 0
KFR1 141520Z 26013KT 24/17 A2988 RMK A01 T02440173  RH  065%=      5-min Rain = 0
KFR1 141521Z 24011KT 24/17 A2988 RMK A01 T02440174  RH  065%=      5-min Rain = 0
KFR1 141522Z 23011KT 25/18 A2987 RMK A01 T02450178  RH  066%=      5-min Rain = 0
KFR1 141523Z 24010KT 25/18 A2987 RMK A01 T02460177  RH  065%=      5-min Rain = 0
KFR1 141524Z 23009KT 25/18 A2988 RMK A01 T02470178  RH  065%=      5-min Rain = 0
KFR1 141525Z 23009KT 25/18 A2988 RMK A01 T02470177  RH  065%=      5-min Rain = 0
KFR1 141526Z 25007KT 25/18 A2988 RMK A01 T02480184  RH  068%=      5-min Rain = 0
KFR1 141527Z 26007KT 25/18 A2988 RMK A01 T02490183  RH  067%=      5-min Rain = 0
KFR1 141528Z 25009KT 25/18 A2988 RMK A01 T02490178  RH  064%=      5-min Rain = 0
KFR1 141529Z 24008KT 25/18 A2988 RMK A01 T02490178  RH  065%=      5-min Rain = 0
KFR1 141530Z 24007KT 25/18 A2988 RMK A01 T02480178  RH  065%=      5-min Rain = 0
KFR1 141531Z 25005KT 25/18 A2988 RMK A01 T02470180  RH  066%=      5-min Rain = 0
KFR1 141532Z 26005KT 25/18 A2988 RMK A01 T02480183  RH  067%=      5-min Rain = 0
KFR1 141533Z 26007KT 25/18 A2988 RMK A01 T02500181  RH  066%=      5-min Rain = 0
KFR1 141534Z 25008KT 25/18 A2988 RMK A01 T02500182  RH  066%=      5-min Rain = 0
KFR1 141535Z 24010KT 25/18 A2988 RMK A01 T02500180  RH  065%=      5-min Rain = 0
KFR1 141536Z 24010G15KT 25/18 A2987 RMK A01 T02500181  RH  065%=      5-min Rain = 0
KFR1 141537Z 24010KT 25/18 A2987 RMK A01 T02500180  RH  065%=      5-min Rain = 0
KFR1 141538Z 25010KT 25/18 A2987 RMK A01 T02500180  RH  065%=      5-min Rain = 0
KFR1 141539Z 25011KT 25/18 A2987 RMK A01 T02500178  RH  064%=      5-min Rain = 0
KFR1 141540Z 25011KT 25/18 A2987 RMK A01 T02500178  RH  064%=      5-min Rain = 0
KFR1 141541Z 23011KT 25/18 A2987 RMK A01 T02500178  RH  064%=      5-min Rain = 0
KFR1 141542Z 24011KT 25/18 A2987 RMK A01 T02500176  RH  064%=      5-min Rain = 0
KFR1 141543Z 24010KT 25/18 A2987 RMK A01 T02500180  RH  065%=      5-min Rain = 0
KFR1 141544Z 23010KT 25/18 A2987 RMK A01 T02500179  RH  064%=      5-min Rain = 0
KFR1 141545Z 24008KT 25/18 A2987 RMK A01 T02510180  RH  064%=      5-min Rain = 0
KFR1 141546Z 25009KT 25/18 A2987 RMK A01 T02510184  RH  066%=      5-min Rain = 0
KFR1 141547Z 24012KT 25/18 A2987 RMK A01 T02520180  RH  064%=      5-min Rain = 0
KFR1 141548Z 24011KT 25/18 A2987 RMK A01 T02520178  RH  064%=      5-min Rain = 0
KFR1 141549Z 24011KT 25/18 A2987 RMK A01 T02530179  RH  063%=      5-min Rain = 0
KFR1 141550Z 25012KT 26/18 A2987 RMK A01 T02550179  RH  063%=      5-min Rain = 0
KFR1 141551Z 25011KT 26/18 A2987 RMK A01 T02560181  RH  063%=      5-min Rain = 0
KFR1 141552Z 25010KT 26/18 A2987 RMK A01 T02560180  RH  063%=      5-min Rain = 0
KFR1 141553Z 24010KT 26/18 A2987 RMK A01 T02570184  RH  064%=      5-min Rain = 0
KFR1 141554Z 25012KT 26/18 A2987 RMK A01 T02580182  RH  063%=      5-min Rain = 0
KFR1 141555Z 24011KT 26/18 A2987 RMK A01 T02580182  RH  063%=      5-min Rain = 0
KFR1 141556Z 24009KT 26/18 A2987 RMK A01 T02570182  RH  063%=      5-min Rain = 0
KFR1 141557Z 25008KT 26/19 A2987 RMK A01 T02580185  RH  064%=      5-min Rain = 0
KFR1 141558Z 25010KT 26/18 A2986 RMK A01 T02590182  RH  063%=      5-min Rain = 0
KFR1 141559Z 25013KT 26/18 A2986 RMK A01 T02600179  RH  061%=      5-min Rain = 0
KFR1 141600Z 25014KT 26/18 A2986 RMK A01 T02600176  RH  060%=      5-min Rain = 0
KFR1 141601Z 25013KT 26/17 A2986 RMK A01 T02590174  RH  059%=      5-min Rain = 0
KFR1 141602Z 23015KT 26/17 A2986 RMK A01 T02600171  RH  058%=      5-min Rain = 0
KFR1 141603Z 23015G21KT 26/17 A2986 RMK A01 T02600172  RH  058%=      5-min Rain = 0
KFR1 141604Z 23016KT 26/17 A2986 RMK A01 T02610167  RH  056%=      5-min Rain = 0
KFR1 141605Z 24014KT 26/17 A2986 RMK A01 T02610168  RH  056%=      5-min Rain = 0
KFR1 141606Z 23012KT 26/17 A2986 RMK A01 T02610170  RH  057%=      5-min Rain = 0
KFR1 141607Z 23011KT 26/18 A2986 RMK A01 T02620175  RH  059%=      5-min Rain = 0
KFR1 141608Z 24012KT 26/17 A2986 RMK A01 T02630171  RH  057%=      5-min Rain = 0
KFR1 141609Z 24011KT 26/18 A2986 RMK A01 T02640176  RH  058%=      5-min Rain = 0
KFR1 141610Z 25013KT 26/17 A2986 RMK A01 T02640173  RH  057%=      5-min Rain = 0
KFR1 141611Z 25011KT 26/17 A2986 RMK A01 T02640173  RH  057%=      5-min Rain = 0
KFR1 141612Z 25013KT 26/17 A2986 RMK A01 T02640173  RH  057%=      5-min Rain = 0
KFR1 141613Z 25011KT 26/18 A2986 RMK A01 T02640175  RH  058%=      5-min Rain = 0
KFR1 141614Z 24012KT 26/18 A2986 RMK A01 T02640175  RH  058%=      5-min Rain = 0
KFR1 141615Z 23010KT 26/18 A2986 RMK A01 T02640176  RH  058%=      5-min Rain = 0
KFR1 141616Z 23014KT 27/18 A2986 RMK A01 T02660177  RH  058%=      5-min Rain = 0
KFR1 141617Z 23012KT 27/18 A2986 RMK A01 T02660176  RH  058%=      5-min Rain = 0
KFR1 141618Z 24013KT 27/17 A2986 RMK A01 T02660174  RH  057%=      5-min Rain = 0
KFR1 141619Z 23011KT 27/17 A2986 RMK A01 T02660174  RH  057%=      5-min Rain = 0
KFR1 141620Z 23011KT 27/18 A2986 RMK A01 T02660178  RH  058%=      5-min Rain = 0
KFR1 141621Z 24012KT 27/18 A2986 RMK A01 T02680175  RH  057%=      5-min Rain = 0
KFR1 141622Z 24010KT 27/18 A2986 RMK A01 T02680179  RH  058%=      5-min Rain = 0
KFR1 141623Z 23012KT 27/18 A2986 RMK A01 T02690178  RH  057%=      5-min Rain = 0
KFR1 141624Z 24013KT 27/18 A2986 RMK A01 T02700175  RH  056%=      5-min Rain = 0
KFR1 141625Z 25010KT 27/17 A2986 RMK A01 T02690174  RH  056%=      5-min Rain = 0
KFR1 141626Z 24012KT 27/18 A2986 RMK A01 T02680176  RH  057%=      5-min Rain = 0
KFR1 141627Z 24015KT 27/17 A2986 RMK A01 T02690173  RH  056%=      5-min Rain = 0
KFR1 141628Z 25015KT 27/17 A2986 RMK A01 T02690168  RH  054%=      5-min Rain = 0
KFR1 141629Z 25016KT 27/16 A2985 RMK A01 T02690164  RH  053%=      5-min Rain = 0
KFR1 141630Z 26014KT 27/17 A2985 RMK A01 T02690165  RH  053%=      5-min Rain = 0
KFR1 141631Z 25013KT 27/17 A2985 RMK A01 T02670170  RH  055%=      5-min Rain = 0
KFR1 141632Z 24012KT 27/17 A2985 RMK A01 T02670173  RH  056%=      5-min Rain = 0
KFR1 141633Z 24013KT 27/17 A2985 RMK A01 T02660171  RH  056%=      5-min Rain = 0
KFR1 141634Z 24013KT 27/17 A2985 RMK A01 T02650170  RH  056%=      5-min Rain = 0
KFR1 141635Z 23011KT 27/17 A2985 RMK A01 T02650172  RH  056%=      5-min Rain = 0
KFR1 141636Z 25012KT 27/17 A2985 RMK A01 T02660172  RH  056%=      5-min Rain = 0
KFR1 141637Z 25012KT 27/17 A2985 RMK A01 T02670170  RH  055%=      5-min Rain = 0
KFR1 141638Z 26016KT 27/17 A2985 RMK A01 T02680165  RH  053%=      5-min Rain = 0
KFR1 141639Z 25013KT 27/16 A2985 RMK A01 T02690163  RH  052%=      5-min Rain = 0
KFR1 141640Z 25013KT 27/16 A2985 RMK A01 T02690163  RH  052%=      5-min Rain = 0
KFR1 141641Z 25011KT 27/17 A2985 RMK A01 T02700167  RH  053%=      5-min Rain = 0
KFR1 141642Z 23011KT 27/17 A2985 RMK A01 T02710170  RH  054%=      5-min Rain = 0
KFR1 141643Z 23013KT 27/17 A2985 RMK A01 T02730169  RH  053%=      5-min Rain = 0
KFR1 141644Z 24010KT 28/17 A2985 RMK A01 T02750174  RH  054%=      5-min Rain = 0
KFR1 141645Z 25013KT 28/17 A2985 RMK A01 T02770171  RH  052%=      5-min Rain = 0
KFR1 141646Z 25013KT 28/17 A2985 RMK A01 T02770165  RH  050%=      5-min Rain = 0
KFR1 141647Z 25012KT 28/17 A2985 RMK A01 T02750167  RH  052%=      5-min Rain = 0
KFR1 141648Z 25013KT 27/16 A2985 RMK A01 T02740161  RH  050%=      5-min Rain = 0
KFR1 141649Z 25011KT 27/17 A2985 RMK A01 T02730165  RH  052%=      5-min Rain = 0
KFR1 141650Z 25012KT 27/16 A2985 RMK A01 T02730164  RH  051%=      5-min Rain = 0
KFR1 141651Z 25010KT 27/17 A2985 RMK A01 T02730166  RH  052%=      5-min Rain = 0
KFR1 141652Z 25009KT 27/17 A2985 RMK A01 T02730171  RH  054%=      5-min Rain = 0
KFR1 141653Z 25010KT 27/17 A2985 RMK A01 T02740168  RH  052%=      5-min Rain = 0
KFR1 141654Z 25011KT 28/17 A2985 RMK A01 T02750168  RH  052%=      5-min Rain = 0
KFR1 141655Z 25012KT 27/16 A2985 RMK A01 T02740164  RH  051%=      5-min Rain = 0
KFR1 141656Z 25011KT 27/17 A2985 RMK A01 T02720166  RH  052%=      5-min Rain = 0
KFR1 141657Z 25012KT 27/16 A2985 RMK A01 T02710162  RH  051%=      5-min Rain = 0
KFR1 141658Z 24015KT 27/16 A2985 RMK A01 T02700161  RH  051%=      5-min Rain = 0
KFR1 141659Z 24014KT 27/16 A2985 RMK A01 T02700160  RH  051%=      5-min Rain = 0
KFR1 141700Z 24014KT 27/16 A2985 RMK A01 T02710162  RH  051%=      5-min Rain = 0
KFR1 141701Z 24014KT 27/16 A2985 RMK A01 T02720161  RH  051%=      5-min Rain = 0
KFR1 141702Z 25011KT 27/16 A2985 RMK A01 T02730163  RH  051%=      5-min Rain = 0
KFR1 141703Z 24012KT 28/17 A2985 RMK A01 T02750167  RH  052%=      5-min Rain = 0
KFR1 141704Z 24012KT 28/17 A2985 RMK A01 T02770170  RH  052%=      5-min Rain = 0
KFR1 141705Z 24012KT 28/16 A2985 RMK A01 T02790164  RH  050%=      5-min Rain = 0
KFR1 141706Z 25012KT 28/17 A2985 RMK A01 T02790167  RH  050%=      5-min Rain = 0
KFR1 141707Z 25011KT 28/17 A2985 RMK A01 T02800167  RH  050%=      5-min Rain = 0
KFR1 141708Z 25010KT 28/17 A2985 RMK A01 T02810165  RH  049%=      5-min Rain = 0
KFR1 141709Z 25011KT 28/17 A2985 RMK A01 T02810167  RH  050%=      5-min Rain = 0
KFR1 141710Z 24010KT 28/17 A2985 RMK A01 T02790165  RH  050%=      5-min Rain = 0
KFR1 141711Z 25012KT 28/17 A2985 RMK A01 T02790165  RH  050%=      5-min Rain = 0
KFR1 141712Z 25012KT 28/16 A2985 RMK A01 T02790163  RH  049%=      5-min Rain = 0
KFR1 141713Z 24012KT 28/16 A2985 RMK A01 T02780161  RH  049%=      5-min Rain = 0
KFR1 141714Z 25012KT 28/16 A2985 RMK A01 T02770163  RH  050%=      5-min Rain = 0
KFR1 141715Z 25009KT 28/16 A2985 RMK A01 T02770160  RH  049%=      5-min Rain = 0
KFR1 141716Z 26010KT 28/16 A2985 RMK A01 T02780163  RH  050%=      5-min Rain = 0
KFR1 141717Z 24011KT 28/16 A2985 RMK A01 T02790160  RH  048%=      5-min Rain = 0
KFR1 141718Z 25010KT 28/16 A2985 RMK A01 T02800162  RH  049%=      5-min Rain = 0
KFR1 141719Z 25012KT 28/16 A2985 RMK A01 T02800161  RH  048%=      5-min Rain = 0
KFR1 141720Z 24011KT 28/16 A2985 RMK A01 T02810163  RH  049%=      5-min Rain = 0
KFR1 141721Z 24012KT 28/16 A2985 RMK A01 T02810163  RH  049%=      5-min Rain = 0
KFR1 141722Z 25013KT 28/16 A2985 RMK A01 T02820159  RH  047%=      5-min Rain = 0
KFR1 141723Z 25011KT 28/16 A2985 RMK A01 T02820159  RH  047%=      5-min Rain = 0
KFR1 141724Z 24010KT 28/16 A2985 RMK A01 T02820164  RH  049%=      5-min Rain = 0
KFR1 141725Z 24013KT 28/16 A2985 RMK A01 T02820161  RH  048%=      5-min Rain = 0
KFR1 141726Z 24011KT 28/16 A2985 RMK A01 T02820159  RH  047%=      5-min Rain = 0
KFR1 141727Z 24012KT 28/16 A2985 RMK A01 T02820160  RH  047%=      5-min Rain = 0
KFR1 141728Z 24012KT 28/16 A2984 RMK A01 T02830157  RH  046%=      5-min Rain = 0
KFR1 141729Z 24010KT 28/15 A2984 RMK A01 T02830153  RH  045%=      5-min Rain = 0
KFR1 141730Z 24010KT 28/16 A2984 RMK A01 T02820160  RH  048%=      5-min Rain = 0
KFR1 141731Z 24009KT 28/16 A2984 RMK A01 T02830162  RH  048%=      5-min Rain = 0
KFR1 141732Z 24009KT 28/16 A2984 RMK A01 T02840161  RH  047%=      5-min Rain = 0
KFR1 141733Z 26008KT 28/16 A2984 RMK A01 T02840161  RH  047%=      5-min Rain = 0
KFR1 141734Z 27009KT 28/16 A2985 RMK A01 T02840161  RH  047%=      5-min Rain = 0
KFR1 141735Z 26009KT 28/16 A2985 RMK A01 T02840157  RH  046%=      5-min Rain = 0
KFR1 141736Z 25009KT 28/16 A2985 RMK A01 T02820161  RH  048%=      5-min Rain = 0
KFR1 141737Z 25007KT 28/16 A2985 RMK A01 T02820158  RH  047%=      5-min Rain = 0
KFR1 141738Z 27007KT 28/16 A2985 RMK A01 T02820164  RH  049%=      5-min Rain = 0
KFR1 141739Z 23008KT 28/16 A2985 RMK A01 T02820164  RH  049%=      5-min Rain = 0
KFR1 141740Z 23009KT 28/16 A2984 RMK A01 T02840159  RH  047%=      5-min Rain = 0
KFR1 141741Z 24007KT 28/16 A2984 RMK A01 T02840162  RH  048%=      5-min Rain = 0
KFR1 141742Z 24005KT 28/17 A2984 RMK A01 T02840168  RH  050%=      5-min Rain = 0
KFR1 141743Z 24008KT 28/17 A2984 RMK A01 T02840167  RH  049%=      5-min Rain = 0
KFR1 141744Z 24009KT 28/16 A2984 RMK A01 T02830159  RH  047%=      5-min Rain = 0
KFR1 141745Z 24010KT 28/16 A2984 RMK A01 T02810157  RH  047%=      5-min Rain = 0
KFR1 141746Z 24008KT 28/16 A2984 RMK A01 T02800159  RH  048%=      5-min Rain = 0
KFR1 141747Z 24009KT 28/16 A2984 RMK A01 T02790159  RH  048%=      5-min Rain = 0
KFR1 141748Z 24010KT 28/16 A2984 RMK A01 T02790158  RH  048%=      5-min Rain = 0
KFR1 141749Z 24010KT 28/16 A2984 RMK A01 T02780155  RH  047%=      5-min Rain = 0
KFR1 141750Z 25009KT 28/16 A2984 RMK A01 T02780155  RH  047%=      5-min Rain = 0
KFR1 141751Z 24010KT 28/16 A2984 RMK A01 T02780156  RH  047%=      5-min Rain = 0
KFR1 141752Z 23008KT 28/16 A2984 RMK A01 T02770157  RH  048%=      5-min Rain = 0
KFR1 141753Z 25008KT 28/16 A2984 RMK A01 T02780158  RH  048%=      5-min Rain = 0
KFR1 141754Z 24008KT 28/16 A2984 RMK A01 T02780157  RH  048%=      5-min Rain = 0
KFR1 141755Z 23008KT 28/16 A2984 RMK A01 T02780159  RH  048%=      5-min Rain = 0
KFR1 141756Z 23009KT 28/16 A2984 RMK A01 T02790157  RH  047%=      5-min Rain = 0
KFR1 141757Z 23008KT 28/15 A2984 RMK A01 T02790152  RH  046%=      5-min Rain = 0
KFR1 141758Z 24006KT 28/17 A2984 RMK A01 T02800165  RH  049%=      5-min Rain = 0
KFR1 141759Z 23006KT 28/16 A2984 RMK A01 T02810163  RH  049%=      5-min Rain = 0
KFR1 141800Z 23005KT 28/17 A2983 RMK A01 T02820171  RH  051%=      5-min Rain = 0
KFR1 141801Z 23005KT 28/17 A2983 RMK A01 T02820172  RH  051%=      5-min Rain = 0
KFR1 141802Z 24006KT 28/16 A2983 RMK A01 T02830162  RH  048%=      5-min Rain = 0
KFR1 141803Z 24006KT 28/16 A2983 RMK A01 T02830164  RH  048%=      5-min Rain = 0
KFR1 141804Z 23006KT 28/17 A2983 RMK A01 T02820165  RH  049%=      5-min Rain = 0
KFR1 141805Z 25005KT 28/17 A2983 RMK A01 T02820170  RH  051%=      5-min Rain = 0
KFR1 141806Z 24006KT 28/17 A2983 RMK A01 T02820169  RH  050%=      5-min Rain = 0
KFR1 141807Z 23006KT 28/17 A2983 RMK A01 T02820168  RH  050%=      5-min Rain = 0
KFR1 141808Z 23007KT 28/16 A2983 RMK A01 T02820162  RH  048%=      5-min Rain = 0
KFR1 141809Z 23008KT 28/16 A2983 RMK A01 T02820161  RH  048%=      5-min Rain = 0
KFR1 141810Z 23007KT 28/16 A2983 RMK A01 T02810161  RH  048%=      5-min Rain = 0
KFR1 141811Z 23007KT 28/16 A2983 RMK A01 T02800160  RH  048%=      5-min Rain = 0
KFR1 141812Z 23007KT 28/16 A2983 RMK A01 T02800160  RH  048%=      5-min Rain = 0
KFR1 141813Z 23007KT 28/16 A2983 RMK A01 T02790160  RH  048%=      5-min Rain = 0
KFR1 141814Z 23007KT 28/16 A2983 RMK A01 T02780161  RH  049%=      5-min Rain = 0
KFR1 141815Z 23006KT 28/16 A2983 RMK A01 T02780162  RH  049%=      5-min Rain = 0
KFR1 141816Z 23005KT 28/16 A2983 RMK A01 T02780160  RH  049%=      5-min Rain = 0
KFR1 141817Z 22006KT 28/17 A2983 RMK A01 T02780166  RH  051%=      5-min Rain = 0
KFR1 141818Z 23006KT 28/16 A2983 RMK A01 T02780164  RH  050%=      5-min Rain = 0
KFR1 141819Z 24006KT 28/17 A2983 RMK A01 T02780166  RH  051%=      5-min Rain = 0
KFR1 141820Z 23007KT 28/17 A2983 RMK A01 T02780168  RH  051%=      5-min Rain = 0
KFR1 141821Z 22006KT 28/16 A2983 RMK A01 T02780158  RH  048%=      5-min Rain = 0
KFR1 141822Z 22007KT 28/17 A2983 RMK A01 T02780165  RH  050%=      5-min Rain = 0
KFR1 141823Z 22008KT 28/15 A2983 RMK A01 T02780154  RH  047%=      5-min Rain = 0
KFR1 141824Z 22008KT 28/16 A2983 RMK A01 T02780157  RH  048%=      5-min Rain = 0
KFR1 141825Z 23007KT 28/16 A2983 RMK A01 T02780160  RH  049%=      5-min Rain = 0
KFR1 141826Z 23008KT 28/16 A2983 RMK A01 T02770161  RH  049%=      5-min Rain = 0
KFR1 141827Z 22006KT 28/16 A2983 RMK A01 T02760164  RH  050%=      5-min Rain = 0
KFR1 141828Z 22008KT 28/16 A2983 RMK A01 T02770161  RH  049%=      5-min Rain = 0
KFR1 141829Z 21007KT 28/16 A2983 RMK A01 T02770158  RH  048%=      5-min Rain = 0
KFR1 141830Z 21007KT 28/16 A2983 RMK A01 T02780159  RH  048%=      5-min Rain = 0
KFR1 141831Z 22008KT 28/16 A2983 RMK A01 T02780157  RH  048%=      5-min Rain = 0
KFR1 141832Z 22006KT 28/16 A2983 RMK A01 T02780161  RH  049%=      5-min Rain = 0
KFR1 141833Z 21007KT 28/16 A2982 RMK A01 T02780160  RH  048%=      5-min Rain = 0
KFR1 141834Z 21007KT 28/16 A2982 RMK A01 T02780160  RH  048%=      5-min Rain = 0
KFR1 141835Z 21006KT 28/16 A2982 RMK A01 T02790159  RH  048%=      5-min Rain = 0
KFR1 141836Z 21007KT 28/16 A2982 RMK A01 T02800162  RH  049%=      5-min Rain = 0
KFR1 141837Z 21007KT 28/16 A2982 RMK A01 T02820158  RH  047%=      5-min Rain = 0
KFR1 141838Z 21006KT 28/16 A2982 RMK A01 T02820157  RH  046%=      5-min Rain = 0
KFR1 141839Z 22006KT 28/16 A2982 RMK A01 T02830162  RH  048%=      5-min Rain = 0
KFR1 141840Z 21007KT 29/17 A2982 RMK A01 T02860165  RH  048%=      5-min Rain = 0
KFR1 141841Z 21007KT 29/16 A2982 RMK A01 T02880161  RH  046%=      5-min Rain = 0
KFR1 141842Z 21007KT 29/16 A2982 RMK A01 T02890156  RH  044%=      5-min Rain = 0
KFR1 141843Z 22006KT 29/16 A2982 RMK A01 T02890160  RH  045%=      5-min Rain = 0
KFR1 141844Z 22006KT 29/16 A2982 RMK A01 T02890156  RH  045%=      5-min Rain = 0
KFR1 141845Z 21006KT 29/16 A2982 RMK A01 T02880158  RH  045%=      5-min Rain = 0
KFR1 141846Z 21005KT 29/16 A2982 RMK A01 T02880159  RH  045%=      5-min Rain = 0
KFR1 141847Z 22005KT 29/16 A2982 RMK A01 T02880162  RH  046%=      5-min Rain = 0
KFR1 141848Z 22005KT 29/16 A2982 RMK A01 T02880162  RH  047%=      5-min Rain = 0
KFR1 141849Z 21006KT 29/16 A2982 RMK A01 T02870163  RH  047%=      5-min Rain = 0
KFR1 141850Z 21006KT 29/16 A2982 RMK A01 T02860155  RH  045%=      5-min Rain = 0
KFR1 141851Z 20006KT 29/16 A2982 RMK A01 T02860156  RH  045%=      5-min Rain = 0
KFR1 141852Z 20004KT 29/15 A2982 RMK A01 T02860149  RH  043%=      5-min Rain = 0
KFR1 141853Z 20005KT 29/16 A2982 RMK A01 T02860155  RH  045%=      5-min Rain = 0
KFR1 141854Z 21005KT 29/15 A2982 RMK A01 T02860153  RH  044%=      5-min Rain = 0
KFR1 141855Z 22005KT 29/16 A2982 RMK A01 T02860155  RH  045%=      5-min Rain = 0
KFR1 141856Z 22004KT 29/16 A2982 RMK A01 T02860162  RH  047%=      5-min Rain = 0
KFR1 141857Z 22005KT 29/16 A2982 RMK A01 T02880163  RH  047%=      5-min Rain = 0
KFR1 141858Z 22006KT 29/17 A2982 RMK A01 T02900165  RH  047%=      5-min Rain = 0
KFR1 141859Z 22007KT 29/16 A2982 RMK A01 T02920156  RH  044%=      5-min Rain = 0
KFR1 141900Z 23007KT 29/16 A2982 RMK A01 T02920158  RH  044%=      5-min Rain = 0
KFR1 141901Z 23007KT 29/17 A2982 RMK A01 T02930167  RH  047%=      5-min Rain = 0
KFR1 141902Z 22008KT 30/16 A2982 RMK A01 T02950158  RH  043%=      5-min Rain = 0
KFR1 141903Z 21007KT 30/16 A2982 RMK A01 T02950159  RH  044%=      5-min Rain = 0
KFR1 141904Z 22006KT 30/17 A2982 RMK A01 T02950169  RH  046%=      5-min Rain = 0
KFR1 141905Z 22006KT 30/17 A2982 RMK A01 T02960167  RH  046%=      5-min Rain = 0
KFR1 141906Z 21007KT 30/16 A2982 RMK A01 T02970158  RH  043%=      5-min Rain = 0
KFR1 141907Z 23011KT 30/16 A2982 RMK A01 T02960161  RH  044%=      5-min Rain = 0
KFR1 141908Z 21009KT 30/16 A2982 RMK A01 T02950160  RH  044%=      5-min Rain = 0
KFR1 141909Z 20008KT 30/15 A2981 RMK A01 T02950154  RH  043%=      5-min Rain = 0
KFR1 141910Z 21009KT 30/15 A2981 RMK A01 T02950154  RH  043%=      5-min Rain = 0
KFR1 141911Z 21007KT 30/16 A2981 RMK A01 T02950157  RH  043%=      5-min Rain = 0
KFR1 141912Z 22007KT 30/16 A2981 RMK A01 T02960164  RH  045%=      5-min Rain = 0
KFR1 141913Z 24007KT 30/17 A2981 RMK A01 T02970171  RH  047%=      5-min Rain = 0
KFR1 141914Z 23008KT 30/16 A2981 RMK A01 T02970162  RH  044%=      5-min Rain = 0
KFR1 141915Z 23010KT 30/16 A2981 RMK A01 T02960158  RH  043%=      5-min Rain = 0
KFR1 141916Z 24008KT 30/16 A2981 RMK A01 T02960157  RH  043%=      5-min Rain = 0
KFR1 141917Z 24008KT 30/16 A2981 RMK A01 T02960161  RH  044%=      5-min Rain = 0
KFR1 141918Z 25008KT 30/16 A2981 RMK A01 T02970163  RH  044%=      5-min Rain = 0
KFR1 141919Z 23006KT 30/16 A2981 RMK A01 T02970164  RH  045%=      5-min Rain = 0
KFR1 141920Z 22006KT 30/16 A2981 RMK A01 T02980161  RH  044%=      5-min Rain = 0
KFR1 141921Z 24006KT 30/17 A2981 RMK A01 T02990169  RH  046%=      5-min Rain = 0
KFR1 141922Z 24007KT 30/16 A2981 RMK A01 T03000164  RH  044%=      5-min Rain = 0
KFR1 141923Z 21006KT 30/16 A2981 RMK A01 T02980163  RH  044%=      5-min Rain = 0
KFR1 141924Z 22007KT 30/16 A2981 RMK A01 T02960158  RH  043%=      5-min Rain = 0
KFR1 141925Z 24005KT 30/16 A2981 RMK A01 T02960163  RH  045%=      5-min Rain = 0
KFR1 141926Z 23006KT 30/17 A2981 RMK A01 T02950171  RH  047%=      5-min Rain = 0
KFR1 141927Z 24005KT 30/17 A2981 RMK A01 T02950173  RH  048%=      5-min Rain = 0
KFR1 141928Z 23008KT 30/17 A2981 RMK A01 T02950170  RH  047%=      5-min Rain = 0
KFR1 141929Z 23008KT 30/16 A2981 RMK A01 T02950162  RH  045%=      5-min Rain = 0
KFR1 141930Z 23007KT 30/16 A2981 RMK A01 T02950163  RH  045%=      5-min Rain = 0
KFR1 141931Z 22008KT 30/16 A2981 RMK A01 T02950156  RH  043%=      5-min Rain = 0
KFR1 141932Z 22007KT 30/16 A2981 RMK A01 T02960156  RH  043%=      5-min Rain = 0
KFR1 141933Z 24006KT 30/16 A2981 RMK A01 T02970155  RH  042%=      5-min Rain = 0
KFR1 141934Z 26006KT 30/17 A2981 RMK A01 T02980172  RH  047%=      5-min Rain = 0
KFR1 141935Z 25007KT 30/16 A2981 RMK A01 T03000164  RH  044%=      5-min Rain = 0
KFR1 141936Z 25007KT 30/17 A2981 RMK A01 T03000167  RH  045%=      5-min Rain = 0
KFR1 141937Z 24007KT 30/17 A2981 RMK A01 T03010173  RH  046%=      5-min Rain = 0
KFR1 141938Z 25008KT 30/17 A2981 RMK A01 T03020173  RH  046%=      5-min Rain = 0
KFR1 141939Z 25007KT 30/16 A2981 RMK A01 T03030163  RH  043%=      5-min Rain = 0
KFR1 141940Z 25007KT 30/17 A2981 RMK A01 T03030169  RH  045%=      5-min Rain = 0
KFR1 141941Z 25007KT 30/17 A2981 RMK A01 T03020166  RH  044%=      5-min Rain = 0
KFR1 141942Z 23008KT 30/17 A2981 RMK A01 T03020166  RH  044%=      5-min Rain = 0
KFR1 141943Z 22007KT 30/17 A2981 RMK A01 T03030168  RH  044%=      5-min Rain = 0
KFR1 141944Z 23007KT 30/16 A2981 RMK A01 T03040163  RH  043%=      5-min Rain = 0
KFR1 141945Z 23007KT 31/16 A2981 RMK A01 T03050161  RH  042%=      5-min Rain = 0
KFR1 141946Z 24006KT 31/17 A2981 RMK A01 T03060168  RH  044%=      5-min Rain = 0
KFR1 141947Z 25005G10KT 31/18 A2981 RMK A01 T03060179  RH  047%=      5-min Rain = 0
KFR1 141948Z 25007KT 31/16 A2981 RMK A01 T03080162  RH  042%=      5-min Rain = 0
KFR1 141949Z 23009KT 31/16 A2981 RMK A01 T03080161  RH  041%=      5-min Rain = 0
KFR1 141950Z 23007KT 31/16 A2981 RMK A01 T03060158  RH  041%=      5-min Rain = 0
KFR1 141951Z 23007KT 31/16 A2981 RMK A01 T03060160  RH  041%=      5-min Rain = 0
KFR1 141952Z 23006KT 31/16 A2981 RMK A01 T03050163  RH  042%=      5-min Rain = 0
KFR1 141953Z 22005KT 31/16 A2981 RMK A01 T03050156  RH  041%=      5-min Rain = 0
KFR1 141954Z 22007KT 30/16 A2981 RMK A01 T03040164  RH  043%=      5-min Rain = 0
KFR1 141955Z 21006KT 31/16 A2981 RMK A01 T03050158  RH  041%=      5-min Rain = 0
KFR1 141956Z 23005KT 31/17 A2981 RMK A01 T03070174  RH  045%=      5-min Rain = 0
KFR1 141957Z 23008KT 31/17 A2981 RMK A01 T03090168  RH  043%=      5-min Rain = 0
KFR1 141958Z 23009KT 31/16 A2981 RMK A01 T03090157  RH  040%=      5-min Rain = 0
KFR1 141959Z 24009KT 31/15 A2981 RMK A01 T03080145  RH  037%=      5-min Rain = 0
KFR1 142000Z 25007KT 31/15 A2981 RMK A01 T03060147  RH  038%=      5-min Rain = 0
KFR1 142001Z 25008KT 30/15 A2981 RMK A01 T03030149  RH  039%=      5-min Rain = 0
KFR1 142002Z 24008KT 30/15 A2981 RMK A01 T03010147  RH  039%=      5-min Rain = 0
KFR1 142003Z 23009KT 30/15 A2981 RMK A01 T02990147  RH  040%=      5-min Rain = 0
KFR1 142004Z 23005KT 30/14 A2981 RMK A01 T02980142  RH  039%=      5-min Rain = 0
KFR1 142005Z 23005KT 30/16 A2981 RMK A01 T02980159  RH  043%=      5-min Rain = 0
KFR1 142006Z 24005KT 30/16 A2981 RMK A01 T02990160  RH  043%=      5-min Rain = 0
KFR1 142007Z 23005KT 30/17 A2981 RMK A01 T03010165  RH  044%=      5-min Rain = 0
KFR1 142008Z 23005KT 30/17 A2981 RMK A01 T03040172  RH  045%=      5-min Rain = 0
KFR1 142009Z 22008KT 31/16 A2981 RMK A01 T03070155  RH  040%=      5-min Rain = 0
KFR1 142010Z 21007KT 31/16 A2981 RMK A01 T03080159  RH  041%=      5-min Rain = 0
KFR1 142011Z 21008KT 31/15 A2981 RMK A01 T03090150  RH  038%=      5-min Rain = 0
KFR1 142012Z 22007KT 31/16 A2981 RMK A01 T03090157  RH  040%=      5-min Rain = 0
KFR1 142013Z 22007KT 31/15 A2981 RMK A01 T03100153  RH  039%=      5-min Rain = 0
KFR1 142014Z 22008KT 31/15 A298 RMK A01 T03100151  RH  038%=      5-min Rain = 0
KFR1 142015Z 22008KT 31/16 A298 RMK A01 T03100159  RH  040%=      5-min Rain = 0
KFR1 142016Z 22009KT 31/15 A298 RMK A01 T03110149  RH  037%=      5-min Rain = 0
KFR1 142017Z 22008KT 31/15 A298 RMK A01 T03120150  RH  038%=      5-min Rain = 0
KFR1 142018Z 23009KT 31/15 A298 RMK A01 T03110149  RH  038%=      5-min Rain = 0
KFR1 142019Z 24009KT 31/16 A298 RMK A01 T03100155  RH  039%=      5-min Rain = 0
KFR1 142020Z 24009KT 31/16 A298 RMK A01 T03090155  RH  039%=      5-min Rain = 0
KFR1 142021Z 24008KT 31/15 A298 RMK A01 T03080149  RH  038%=      5-min Rain = 0
KFR1 142022Z 23008KT 31/15 A298 RMK A01 T03070151  RH  039%=      5-min Rain = 0
KFR1 142023Z 23006KT 31/15 A298 RMK A01 T03060151  RH  039%=      5-min Rain = 0
KFR1 142024Z 23005KT 31/16 A298 RMK A01 T03070158  RH  040%=      5-min Rain = 0
KFR1 142025Z 23007KT 31/16 A298 RMK A01 T03100161  RH  041%=      5-min Rain = 0
KFR1 142026Z 22008KT 31/16 A298 RMK A01 T03110157  RH  039%=      5-min Rain = 0
KFR1 142027Z 22007KT 31/15 A298 RMK A01 T03120148  RH  037%=      5-min Rain = 0
KFR1 142028Z 21006KT 31/15 A298 RMK A01 T03110150  RH  038%=      5-min Rain = 0
KFR1 142029Z 22006KT 31/16 A298 RMK A01 T03110157  RH  040%=      5-min Rain = 0
KFR1 142030Z 22006KT 31/16 A298 RMK A01 T03120160  RH  040%=      5-min Rain = 0
KFR1 142031Z 23006KT 31/16 A298 RMK A01 T03130161  RH  040%=      5-min Rain = 0
KFR1 142032Z 23006KT 31/16 A298 RMK A01 T03120155  RH  039%=      5-min Rain = 0
KFR1 142033Z 22004KT 31/16 A298 RMK A01 T03120156  RH  039%=      5-min Rain = 0
KFR1 142034Z 19003KT 31/15 A298 RMK A01 T03110152  RH  038%=      5-min Rain = 0
KFR1 142035Z 19005KT 31/15 A298 RMK A01 T03120151  RH  038%=      5-min Rain = 0
KFR1 142036Z 18006KT 31/15 A298 RMK A01 T03120147  RH  037%=      5-min Rain = 0
KFR1 142037Z 18004KT 31/16 A298 RMK A01 T03130155  RH  038%=      5-min Rain = 0
KFR1 142038Z 19005KT 31/16 A298 RMK A01 T03140160  RH  039%=      5-min Rain = 0
KFR1 142039Z 21005KT 32/16 A298 RMK A01 T03160164  RH  040%=      5-min Rain = 0
KFR1 142040Z 22004KT 32/16 A298 RMK A01 T03180163  RH  040%=      5-min Rain = 0
KFR1 142041Z 22005KT 32/16 A298 RMK A01 T03170161  RH  039%=      5-min Rain = 0
KFR1 142042Z 23005KT 32/16 A298 RMK A01 T03170159  RH  039%=      5-min Rain = 0
KFR1 142043Z 22006KT 32/16 A298 RMK A01 T03160160  RH  039%=      5-min Rain = 0
KFR1 142044Z 23008KT 32/16 A2979 RMK A01 T03170157  RH  038%=      5-min Rain = 0
KFR1 142045Z 22006KT 32/15 A2979 RMK A01 T03170153  RH  037%=      5-min Rain = 0
KFR1 142046Z 23005KT 32/15 A2979 RMK A01 T03160152  RH  037%=      5-min Rain = 0
KFR1 142047Z 23006KT 32/15 A2979 RMK A01 T03160154  RH  037%=      5-min Rain = 0
KFR1 142048Z 23006KT 32/16 A2979 RMK A01 T03170156  RH  038%=      5-min Rain = 0
KFR1 142049Z 23007KT 32/15 A2979 RMK A01 T03170149  RH  036%=      5-min Rain = 0
KFR1 142050Z 21005KT 32/15 A2979 RMK A01 T03170154  RH  037%=      5-min Rain = 0
KFR1 142051Z 22006KT 32/16 A2979 RMK A01 T03170155  RH  038%=      5-min Rain = 0
KFR1 142052Z 23007KT 32/16 A2979 RMK A01 T03180162  RH  039%=      5-min Rain = 0
KFR1 142053Z 22008KT 32/15 A2979 RMK A01 T03190148  RH  035%=      5-min Rain = 0
KFR1 142054Z 22008KT 32/15 A2979 RMK A01 T03180149  RH  036%=      5-min Rain = 0
KFR1 142055Z 23009KT 32/15 A2979 RMK A01 T03180149  RH  036%=      5-min Rain = 0
KFR1 142056Z 23007KT 32/15 A2979 RMK A01 T03170153  RH  037%=      5-min Rain = 0
KFR1 142057Z 21006KT 32/15 A2979 RMK A01 T03180151  RH  037%=      5-min Rain = 0
KFR1 142058Z 22006KT 32/16 A2979 RMK A01 T03180157  RH  038%=      5-min Rain = 0
KFR1 142059Z 24006KT 32/16 A2979 RMK A01 T03190163  RH  039%=      5-min Rain = 0
KFR1 142100Z 23006KT 32/16 A2979 RMK A01 T03200159  RH  038%=      5-min Rain = 0
KFR1 142101Z 24008KT 32/16 A2979 RMK A01 T03200164  RH  039%=      5-min Rain = 0
KFR1 142102Z 23007KT 32/16 A2979 RMK A01 T03200156  RH  037%=      5-min Rain = 0
KFR1 142103Z 24007KT 32/17 A2979 RMK A01 T03190166  RH  040%=      5-min Rain = 0
KFR1 142104Z 23006KT 32/16 A2979 RMK A01 T03190160  RH  038%=      5-min Rain = 0
KFR1 142105Z 23005KT 32/16 A2979 RMK A01 T03200156  RH  037%=      5-min Rain = 0
KFR1 142106Z 24006KT 32/17 A2979 RMK A01 T03200166  RH  040%=      5-min Rain = 0
KFR1 142107Z 22006KT 32/16 A2979 RMK A01 T03200159  RH  038%=      5-min Rain = 0
KFR1 142108Z 20004KT 32/16 A2979 RMK A01 T03200158  RH  038%=      5-min Rain = 0
KFR1 142109Z 20003KT 32/17 A2979 RMK A01 T03210165  RH  039%=      5-min Rain = 0
KFR1 142110Z 24003KT 32/16 A2979 RMK A01 T03210157  RH  037%=      5-min Rain = 0
KFR1 142111Z 23004KT 32/17 A2979 RMK A01 T03220171  RH  040%=      5-min Rain = 0
KFR1 142112Z 22004KT 32/16 A2979 RMK A01 T03230164  RH  038%=      5-min Rain = 0
KFR1 142113Z 23002KT 32/17 A2979 RMK A01 T03240173  RH  041%=      5-min Rain = 0
KFR1 142114Z 19002KT 33/17 A2979 RMK A01 T03260170  RH  039%=      5-min Rain = 0
KFR1 142115Z 18004KT 33/16 A2979 RMK A01 T03270158  RH  036%=      5-min Rain = 0
KFR1 142116Z 20004KT 33/16 A2978 RMK A01 T03270158  RH  036%=      5-min Rain = 0
KFR1 142117Z 21004KT 33/16 A2978 RMK A01 T03250158  RH  037%=      5-min Rain = 0
KFR1 142118Z 19005KT 32/17 A2978 RMK A01 T03240168  RH  039%=      5-min Rain = 0
KFR1 142119Z 23005KT 32/17 A2978 RMK A01 T03240172  RH  040%=      5-min Rain = 0
KFR1 142120Z 24004KT 32/17 A2978 RMK A01 T03240171  RH  040%=      5-min Rain = 0
KFR1 142121Z 27003KT 32/17 A2978 RMK A01 T03230170  RH  040%=      5-min Rain = 0
KFR1 142122Z 27002KT 32/16 A2978 RMK A01 T03220164  RH  039%=      5-min Rain = 0
KFR1 142123Z 22004KT 32/17 A2978 RMK A01 T03220170  RH  040%=      5-min Rain = 0
KFR1 142124Z 23004KT 32/17 A2978 RMK A01 T03230170  RH  040%=      5-min Rain = 0
KFR1 142125Z 20004KT 32/16 A2978 RMK A01 T03240159  RH  037%=      5-min Rain = 0
KFR1 142126Z 23004KT 32/16 A2978 RMK A01 T03240160  RH  037%=      5-min Rain = 0
KFR1 142127Z 26003KT 32/17 A2978 RMK A01 T03240173  RH  041%=      5-min Rain = 0
KFR1 142128Z 29002KT 32/17 A2978 RMK A01 T03240171  RH  040%=      5-min Rain = 0
KFR1 142129Z 27002KT 32/18 A2978 RMK A01 T03240175  RH  041%=      5-min Rain = 0
KFR1 142130Z 29003KT 33/16 A2978 RMK A01 T03250162  RH  038%=      5-min Rain = 0
KFR1 142131Z 29002KT 33/17 A2978 RMK A01 T03250168  RH  039%=      5-min Rain = 0
KFR1 142132Z 28003KT 32/17 A2978 RMK A01 T03240166  RH  039%=      5-min Rain = 0
KFR1 142133Z 28003KT 32/17 A2978 RMK A01 T03240169  RH  040%=      5-min Rain = 0
KFR1 142134Z 28003KT 32/16 A2978 RMK A01 T03230161  RH  038%=      5-min Rain = 0
KFR1 142135Z 28002KT 32/16 A2977 RMK A01 T03220162  RH  038%=      5-min Rain = 0
KFR1 142136Z 27003KT 32/17 A2977 RMK A01 T03220171  RH  041%=      5-min Rain = 0
KFR1 142137Z 28004KT 32/16 A2977 RMK A01 T03220160  RH  038%=      5-min Rain = 0
KFR1 142138Z 29003KT 32/17 A2977 RMK A01 T03220166  RH  039%=      5-min Rain = 0
KFR1 142139Z 29002KT 32/16 A2977 RMK A01 T03220159  RH  038%=      5-min Rain = 0
KFR1 142140Z 29003KT 32/17 A2977 RMK A01 T03220168  RH  040%=      5-min Rain = 0
KFR1 142141Z 27003KT 32/17 A2977 RMK A01 T03220165  RH  039%=      5-min Rain = 0
KFR1 142142Z 26003KT 32/17 A2977 RMK A01 T03230171  RH  040%=      5-min Rain = 0
KFR1 142143Z 26002KT 32/16 A2977 RMK A01 T03230163  RH  038%=      5-min Rain = 0
KFR1 142144Z 17002KT 32/16 A2977 RMK A01 T03230156  RH  037%=      5-min Rain = 0
KFR1 142145Z 23002KT 32/17 A2977 RMK A01 T03230167  RH  039%=      5-min Rain = 0
KFR1 142146Z 24002KT 32/18 A2977 RMK A01 T03240177  RH  041%=      5-min Rain = 0
KFR1 142147Z 29003KT 33/17 A2977 RMK A01 T03260173  RH  040%=      5-min Rain = 0
KFR1 142148Z 29003KT 33/17 A2977 RMK A01 T03280172  RH  039%=      5-min Rain = 0
KFR1 142149Z 26002KT 33/16 A2977 RMK A01 T03280158  RH  036%=      5-min Rain = 0
KFR1 142150Z 22002KT 33/17 A2977 RMK A01 T03280165  RH  038%=      5-min Rain = 0
KFR1 142151Z 23003KT 33/17 A2976 RMK A01 T03280168  RH  038%=      5-min Rain = 0
KFR1 142152Z 23003KT 33/18 A2976 RMK A01 T03270175  RH  040%=      5-min Rain = 0
KFR1 142153Z 21002KT 33/17 A2976 RMK A01 T03270171  RH  039%=      5-min Rain = 0
KFR1 142154Z 24003KT 33/17 A2976 RMK A01 T03280166  RH  038%=      5-min Rain = 0
KFR1 142155Z 28003KT 33/17 A2976 RMK A01 T03280171  RH  039%=      5-min Rain = 0
KFR1 142156Z 24002KT 33/17 A2976 RMK A01 T03280166  RH  038%=      5-min Rain = 0
KFR1 142157Z 25002KT 33/17 A2976 RMK A01 T03280166  RH  038%=      5-min Rain = 0
KFR1 142158Z 25001KT 33/17 A2976 RMK A01 T03290170  RH  039%=      5-min Rain = 0
KFR1 142159Z 24001KT 33/17 A2976 RMK A01 T03300172  RH  039%=      5-min Rain = 0
KFR1 142200Z 24003KT 33/17 A2976 RMK A01 T03300174  RH  039%=      5-min Rain = 0
KFR1 142201Z 23004KT 33/18 A2976 RMK A01 T03310176  RH  040%=      5-min Rain = 0
KFR1 142202Z 19005KT 33/17 A2975 RMK A01 T03320169  RH  038%=      5-min Rain = 0
KFR1 142203Z 14003KT 33/16 A2975 RMK A01 T03340160  RH  035%=      5-min Rain = 0
KFR1 142204Z 12002KT 33/16 A2975 RMK A01 T03340155  RH  034%=      5-min Rain = 0
KFR1 142205Z 21004KT 33/15 A2975 RMK A01 T03340153  RH  034%=      5-min Rain = 0
KFR1 142206Z 20004KT 34/15 A2975 RMK A01 T03350153  RH  034%=      5-min Rain = 0
KFR1 142207Z 19002KT 34/16 A2975 RMK A01 T03350162  RH  036%=      5-min Rain = 0
KFR1 142208Z 19004KT 34/18 A2975 RMK A01 T03370176  RH  039%=      5-min Rain = 0
KFR1 142209Z 19005KT 34/16 A2975 RMK A01 T03390157  RH  034%=      5-min Rain = 0
KFR1 142210Z 20007KT 34/16 A2975 RMK A01 T03400161  RH  034%=      5-min Rain = 0
KFR1 142211Z 25004KT 34/18 A2975 RMK A01 T03390178  RH  038%=      5-min Rain = 0
KFR1 142212Z 25003KT 34/17 A2975 RMK A01 T03350174  RH  038%=      5-min Rain = 0
KFR1 142213Z 24004KT 33/17 A2975 RMK A01 T03330172  RH  038%=      5-min Rain = 0
KFR1 142214Z 21007KT 33/17 A2975 RMK A01 T03320167  RH  037%=      5-min Rain = 0
KFR1 142215Z 21005KT 33/16 A2975 RMK A01 T03340164  RH  036%=      5-min Rain = 0
KFR1 142216Z 22005KT 34/17 A2975 RMK A01 T03370166  RH  036%=      5-min Rain = 0
KFR1 142217Z 21005KT 34/17 A2975 RMK A01 T03380170  RH  037%=      5-min Rain = 0
KFR1 142218Z 22004KT 34/17 A2975 RMK A01 T03390171  RH  037%=      5-min Rain = 0
KFR1 142219Z 21006KT 34/17 A2975 RMK A01 T03400165  RH  035%=      5-min Rain = 0
KFR1 142220Z 19005KT 34/17 A2975 RMK A01 T03400169  RH  036%=      5-min Rain = 0
KFR1 142221Z 27004KT 34/17 A2975 RMK A01 T03410171  RH  036%=      5-min Rain = 0
KFR1 142222Z 31003KT 34/17 A2975 RMK A01 T03360170  RH  037%=      5-min Rain = 0
KFR1 142223Z 25002KT 33/17 A2975 RMK A01 T03320173  RH  039%=      5-min Rain = 0
KFR1 142224Z 25001KT 33/17 A2975 RMK A01 T03310172  RH  039%=      5-min Rain = 0
KFR1 142225Z 31001KT 33/18 A2975 RMK A01 T03310181  RH  041%=      5-min Rain = 0
KFR1 142226Z 20003KT 33/17 A2975 RMK A01 T03320169  RH  038%=      5-min Rain = 0
KFR1 142227Z 18007KT 33/16 A2974 RMK A01 T03330156  RH  035%=      5-min Rain = 0
KFR1 142228Z 20007KT 34/16 A2974 RMK A01 T03360164  RH  036%=      5-min Rain = 0
KFR1 142229Z 24004KT 34/18 A2974 RMK A01 T03360176  RH  039%=      5-min Rain = 0
KFR1 142230Z 19005KT 33/17 A2974 RMK A01 T03340168  RH  037%=      5-min Rain = 0
KFR1 142231Z 19008KT 33/15 A2974 RMK A01 T03340152  RH  033%=      5-min Rain = 0
KFR1 142232Z 19008KT 34/16 A2974 RMK A01 T03370155  RH  034%=      5-min Rain = 0
KFR1 142233Z 20008KT 34/16 A2974 RMK A01 T03380157  RH  034%=      5-min Rain = 0
KFR1 142234Z 19007KT 34/16 A2974 RMK A01 T03390158  RH  034%=      5-min Rain = 0
KFR1 142235Z 19008KT 34/16 A2974 RMK A01 T03390158  RH  034%=      5-min Rain = 0
KFR1 142236Z 19008KT 34/16 A2974 RMK A01 T03390158  RH  034%=      5-min Rain = 0
KFR1 142237Z 17008KT 34/16 A2974 RMK A01 T03390163  RH  035%=      5-min Rain = 0
KFR1 142238Z 19007KT 34/17 A2974 RMK A01 T03390166  RH  036%=      5-min Rain = 0
KFR1 142239Z 18009KT 34/15 A2974 RMK A01 T03400151  RH  032%=      5-min Rain = 0
KFR1 142240Z 18008KT 34/15 A2974 RMK A01 T03400152  RH  032%=      5-min Rain = 0
KFR1 142241Z 18005KT 34/16 A2974 RMK A01 T03400158  RH  034%=      5-min Rain = 0
KFR1 142242Z 19007KT 34/15 A2974 RMK A01 T03400153  RH  033%=      5-min Rain = 0
KFR1 142243Z 19007KT 34/15 A2974 RMK A01 T03400153  RH  033%=      5-min Rain = 0
KFR1 142244Z 20006KT 34/15 A2974 RMK A01 T03400154  RH  033%=      5-min Rain = 0
KFR1 142245Z 20006KT 34/15 A2974 RMK A01 T03400151  RH  032%=      5-min Rain = 0
KFR1 142246Z 19006KT 34/15 A2974 RMK A01 T03400154  RH  033%=      5-min Rain = 0
KFR1 142247Z 19005KT 34/17 A2974 RMK A01 T03400165  RH  035%=      5-min Rain = 0
KFR1 142248Z 18006KT 34/16 A2974 RMK A01 T03400156  RH  033%=      5-min Rain = 0
KFR1 142249Z 17006KT 34/16 A2974 RMK A01 T03400155  RH  033%=      5-min Rain = 0
KFR1 142250Z 18009KT 34/15 A2974 RMK A01 T03410151  RH  032%=      5-min Rain = 0
KFR1 142251Z 18008KT 34/15 A2974 RMK A01 T03400145  RH  031%=      5-min Rain = 0
KFR1 142252Z 19007KT 34/15 A2974 RMK A01 T03390149  RH  032%=      5-min Rain = 0
KFR1 142253Z 18005KT 34/15 A2974 RMK A01 T03390154  RH  033%=      5-min Rain = 0
KFR1 142254Z 17005KT 34/16 A2974 RMK A01 T03400155  RH  033%=      5-min Rain = 0
KFR1 142255Z 16006KT 34/15 A2974 RMK A01 T03400153  RH  033%=      5-min Rain = 0
KFR1 142256Z 17006KT 34/16 A2974 RMK A01 T03400156  RH  033%=      5-min Rain = 0
KFR1 142257Z 17006KT 34/16 A2974 RMK A01 T03410161  RH  034%=      5-min Rain = 0
KFR1 142258Z 18005KT 34/16 A2974 RMK A01 T03410156  RH  033%=      5-min Rain = 0
KFR1 142259Z 16006KT 34/16 A2974 RMK A01 T03410157  RH  033%=      5-min Rain = 0
KFR1 142300Z 17009KT 34/15 A2974 RMK A01 T03410148  RH  031%=      5-min Rain = 0
KFR1 142301Z 16009KT 34/14 A2973 RMK A01 T03410144  RH  031%=      5-min Rain = 0
KFR1 142302Z 17007KT 34/15 A2973 RMK A01 T03400149  RH  032%=      5-min Rain = 0
KFR1 142303Z 18008KT 34/15 A2973 RMK A01 T03400149  RH  032%=      5-min Rain = 0
KFR1 142304Z 17007KT 34/15 A2973 RMK A01 T03400152  RH  032%=      5-min Rain = 0
KFR1 142305Z 17006KT 34/15 A2973 RMK A01 T03400154  RH  033%=      5-min Rain = 0
KFR1 142306Z 17005KT 34/17 A2973 RMK A01 T03400165  RH  035%=      5-min Rain = 0
KFR1 142307Z 18007KT 34/16 A2973 RMK A01 T03400160  RH  034%=      5-min Rain = 0
KFR1 142308Z 17007KT 34/15 A2973 RMK A01 T03390148  RH  032%=      5-min Rain = 0
KFR1 142309Z 17005KT 34/16 A2973 RMK A01 T03370157  RH  034%=      5-min Rain = 0
KFR1 142310Z 16008KT 34/15 A2973 RMK A01 T03360154  RH  034%=      5-min Rain = 0
KFR1 142311Z 17008KT 34/15 A2973 RMK A01 T03350150  RH  033%=      5-min Rain = 0
KFR1 142312Z 17010KT 33/14 A2973 RMK A01 T03340144  RH  032%=      5-min Rain = 0
KFR1 142313Z 17010KT 33/14 A2973 RMK A01 T03330140  RH  031%=      5-min Rain = 0
KFR1 142314Z 17010KT 33/14 A2973 RMK A01 T03310141  RH  032%=      5-min Rain = 0
KFR1 142315Z 17009KT 33/14 A2973 RMK A01 T03300139  RH  032%=      5-min Rain = 0
KFR1 142316Z 17010KT 33/14 A2973 RMK A01 T03290139  RH  032%=      5-min Rain = 0
KFR1 142317Z 17008KT 33/14 A2973 RMK A01 T03270142  RH  033%=      5-min Rain = 0
KFR1 142318Z 17009KT 33/14 A2973 RMK A01 T03260143  RH  033%=      5-min Rain = 0
KFR1 142319Z 17011KT 33/14 A2973 RMK A01 T03250142  RH  033%=      5-min Rain = 0
KFR1 142320Z 16010KT 33/14 A2973 RMK A01 T03250137  RH  032%=      5-min Rain = 0
KFR1 142321Z 16009KT 32/14 A2973 RMK A01 T03240144  RH  034%=      5-min Rain = 0
KFR1 142322Z 17009KT 32/14 A2973 RMK A01 T03230138  RH  033%=      5-min Rain = 0
KFR1 142323Z 16008KT 32/15 A2973 RMK A01 T03230145  RH  034%=      5-min Rain = 0
KFR1 142324Z 16008KT 32/15 A2973 RMK A01 T03220145  RH  034%=      5-min Rain = 0
KFR1 142325Z 15008KT 32/15 A2972 RMK A01 T03220147  RH  035%=      5-min Rain = 0
KFR1 142326Z 16007KT 32/15 A2972 RMK A01 T03210150  RH  036%=      5-min Rain = 0
KFR1 142327Z 16008KT 32/15 A2972 RMK A01 T03200153  RH  036%=      5-min Rain = 0
KFR1 142328Z 16009KT 32/16 A2972 RMK A01 T03190156  RH  037%=      5-min Rain = 0
KFR1 142329Z 16010KT 32/16 A2972 RMK A01 T03190158  RH  038%=      5-min Rain = 0
KFR1 142330Z 16011KT 32/16 A2972 RMK A01 T03180161  RH  039%=      5-min Rain = 0
KFR1 142331Z 16011KT 32/16 A2972 RMK A01 T03170159  RH  039%=      5-min Rain = 0
KFR1 142332Z 16010KT 32/16 A2972 RMK A01 T03160161  RH  039%=      5-min Rain = 0
KFR1 142333Z 16011KT 32/16 A2972 RMK A01 T03160163  RH  040%=      5-min Rain = 0
KFR1 142334Z 16008KT 32/16 A2972 RMK A01 T03150162  RH  040%=      5-min Rain = 0
KFR1 142335Z 16010KT 32/16 A2972 RMK A01 T03150163  RH  040%=      5-min Rain = 0
KFR1 142336Z 16010KT 32/16 A2972 RMK A01 T03150163  RH  040%=      5-min Rain = 0
KFR1 142337Z 16011KT 32/16 A2972 RMK A01 T03150162  RH  040%=      5-min Rain = 0
KFR1 142338Z 16010KT 32/17 A2972 RMK A01 T03150165  RH  041%=      5-min Rain = 0
KFR1 142339Z 16009KT 31/17 A2972 RMK A01 T03140166  RH  041%=      5-min Rain = 0
KFR1 142340Z 15009KT 31/17 A2972 RMK A01 T03130169  RH  042%=      5-min Rain = 0
KFR1 142341Z 15009G14KT 31/17 A2972 RMK A01 T03130169  RH  042%=      5-min Rain = 0
KFR1 142342Z 15010G15KT 31/17 A2972 RMK A01 T03130170  RH  042%=      5-min Rain = 0
KFR1 142343Z 15009KT 31/17 A2972 RMK A01 T03130170  RH  043%=      5-min Rain = 0
KFR1 142344Z 15009G14KT 31/17 A2972 RMK A01 T03130173  RH  043%=      5-min Rain = 0
KFR1 142345Z 15008KT 31/17 A2972 RMK A01 T03120172  RH  043%=      5-min Rain = 0
KFR1 142346Z 15010KT 31/17 A2972 RMK A01 T03120173  RH  043%=      5-min Rain = 0
KFR1 142347Z 15008KT 31/17 A2972 RMK A01 T03120173  RH  043%=      5-min Rain = 0
KFR1 142348Z 15008KT 31/18 A2972 RMK A01 T03120175  RH  044%=      5-min Rain = 0
KFR1 142349Z 15007KT 31/18 A2971 RMK A01 T03110177  RH  045%=      5-min Rain = 0
KFR1 142350Z 15008KT 31/18 A2971 RMK A01 T03110179  RH  045%=      5-min Rain = 0
KFR1 142351Z 15010KT 31/18 A2971 RMK A01 T03100179  RH  046%=      5-min Rain = 0
KFR1 142352Z 15008KT 31/18 A2971 RMK A01 T03090181  RH  046%=      5-min Rain = 0
KFR1 142353Z 15007G13KT 31/18 A2971 RMK A01 T03090183  RH  047%=      5-min Rain = 0
KFR1 142354Z 15008KT 31/18 A2971 RMK A01 T03080183  RH  047%=      5-min Rain = 0
KFR1 142355Z 14010KT 31/18 A2971 RMK A01 T03080184  RH  047%=      5-min Rain = 0
KFR1 142356Z 14008KT 31/18 A2971 RMK A01 T03080184  RH  048%=      5-min Rain = 0
KFR1 142357Z 15008KT 31/18 A2971 RMK A01 T03080184  RH  048%=      5-min Rain = 0
KFR1 142358Z 14009KT 31/18 A2971 RMK A01 T03080183  RH  047%=      5-min Rain = 0
KFR1 142359Z 14009KT 31/18 A297 RMK A01 T03080183  RH  047%=      5-min Rain = 0
KFR1 150000Z 14008G13KT 31/18 A297 RMK A01 T03080184  RH  048%=      5-min Rain = 0
KFR1 150001Z 14008KT 31/18 A297 RMK A01 T03080184  RH  048%=      5-min Rain = 0
KFR1 150002Z 15009G14KT 31/19 A297 RMK A01 T03080186  RH  048%=      5-min Rain = 0
KFR1 150003Z 14009KT 31/18 A297 RMK A01 T03070184  RH  048%=      5-min Rain = 0
KFR1 150004Z 14008KT 31/18 A297 RMK A01 T03070184  RH  048%=      5-min Rain = 0
KFR1 150005Z 14008KT 31/19 A297 RMK A01 T03070186  RH  048%=      5-min Rain = 0
KFR1 150006Z 14009KT 31/19 A297 RMK A01 T03070186  RH  049%=      5-min Rain = 0
KFR1 150007Z 15009KT 31/19 A297 RMK A01 T03070185  RH  048%=      5-min Rain = 0
KFR1 150008Z 16008G13KT 31/19 A297 RMK A01 T03060185  RH  048%=      5-min Rain = 0
KFR1 150009Z 16007KT 31/19 A2969 RMK A01 T03060185  RH  048%=      5-min Rain = 0
KFR1 150010Z 15010KT 31/18 A2969 RMK A01 T03060183  RH  048%=      5-min Rain = 0
KFR1 150011Z 15007KT 31/18 A2969 RMK A01 T03060181  RH  047%=      5-min Rain = 0
KFR1 150012Z 15008KT 31/18 A2969 RMK A01 T03060182  RH  047%=      5-min Rain = 0
KFR1 150013Z 15011KT 31/18 A2969 RMK A01 T03060178  RH  046%=      5-min Rain = 0
KFR1 150014Z 16011KT 31/18 A2969 RMK A01 T03060176  RH  046%=      5-min Rain = 0
KFR1 150015Z 15011KT 31/17 A2969 RMK A01 T03060173  RH  045%=      5-min Rain = 0
KFR1 150016Z 16011KT 31/17 A2969 RMK A01 T03060173  RH  045%=      5-min Rain = 0
KFR1 150017Z 16009KT 31/17 A2969 RMK A01 T03060173  RH  045%=      5-min Rain = 0
KFR1 150018Z 16012KT 31/17 A2969 RMK A01 T03050171  RH  045%=      5-min Rain = 0
KFR1 150019Z 16011KT 31/17 A2969 RMK A01 T03050169  RH  044%=      5-min Rain = 0
KFR1 150020Z 16012G17KT 31/17 A2969 RMK A01 T03050167  RH  044%=      5-min Rain = 0
KFR1 150021Z 16011KT 31/17 A2969 RMK A01 T03050165  RH  043%=      5-min Rain = 0
KFR1 150022Z 16012KT 31/16 A2969 RMK A01 T03050163  RH  042%=      5-min Rain = 0
KFR1 150023Z 16014KT 31/16 A2969 RMK A01 T03050161  RH  042%=      5-min Rain = 0
KFR1 150024Z 16014KT 31/16 A2969 RMK A01 T03060159  RH  041%=      5-min Rain = 0
KFR1 150025Z 17013KT 31/16 A2969 RMK A01 T03060160  RH  041%=      5-min Rain = 0
KFR1 150026Z 17015KT 31/16 A2969 RMK A01 T03060159  RH  041%=      5-min Rain = 0
KFR1 150027Z 17014G22KT 31/16 A2969 RMK A01 T03050156  RH  041%=      5-min Rain = 0
KFR1 150028Z 16015G21KT 31/15 A2969 RMK A01 T03050152  RH  040%=      5-min Rain = 0
KFR1 150029Z 17013G18KT 31/15 A2969 RMK A01 T03050151  RH  039%=      5-min Rain = 0
KFR1 150030Z 17016KT 31/15 A2969 RMK A01 T03050149  RH  039%=      5-min Rain = 0
KFR1 150031Z 17016G21KT 31/14 A2969 RMK A01 T03050144  RH  038%=      5-min Rain = 0
KFR1 150032Z 17013KT 31/14 A2969 RMK A01 T03050144  RH  037%=      5-min Rain = 0
KFR1 150033Z 17014KT 31/15 A2969 RMK A01 T03050146  RH  038%=      5-min Rain = 0
KFR1 150034Z 17016KT 30/14 A2969 RMK A01 T03040144  RH  038%=      5-min Rain = 0
KFR1 150035Z 16014KT 30/14 A2969 RMK A01 T03040142  RH  037%=      5-min Rain = 0
KFR1 150036Z 16013KT 30/14 A2969 RMK A01 T03040143  RH  037%=      5-min Rain = 0
KFR1 150037Z 16013KT 30/14 A2969 RMK A01 T03030143  RH  038%=      5-min Rain = 0
KFR1 150038Z 16014G19KT 30/14 A2969 RMK A01 T03030143  RH  038%=      5-min Rain = 0
KFR1 150039Z 16016G21KT 30/14 A2969 RMK A01 T03030142  RH  037%=      5-min Rain = 0
KFR1 150040Z 16016KT 30/14 A2969 RMK A01 T03030142  RH  037%=      5-min Rain = 0
KFR1 150041Z 16015G20KT 30/14 A2969 RMK A01 T03030142  RH  037%=      5-min Rain = 0
KFR1 150042Z 17015KT 30/14 A2969 RMK A01 T03030141  RH  037%=      5-min Rain = 0
KFR1 150043Z 17014G19KT 30/14 A2969 RMK A01 T03020141  RH  037%=      5-min Rain = 0
KFR1 150044Z 17014KT 30/14 A2969 RMK A01 T03020139  RH  037%=      5-min Rain = 0
KFR1 150045Z 17015KT 30/14 A2969 RMK A01 T03010140  RH  037%=      5-min Rain = 0
KFR1 150046Z 17015G20KT 30/14 A2969 RMK A01 T03010139  RH  037%=      5-min Rain = 0
KFR1 150047Z 17015G20KT 30/14 A2969 RMK A01 T03000138  RH  037%=      5-min Rain = 0
KFR1 150048Z 17015G21KT 30/14 A2969 RMK A01 T03010139  RH  037%=      5-min Rain = 0
KFR1 150049Z 17014KT 30/14 A2968 RMK A01 T03000138  RH  037%=      5-min Rain = 0
KFR1 150050Z 17017G22KT 30/14 A2968 RMK A01 T03000137  RH  037%=      5-min Rain = 0
KFR1 150051Z 17018KT 30/13 A2968 RMK A01 T03000134  RH  036%=      5-min Rain = 0
KFR1 150052Z 17014KT 30/14 A2968 RMK A01 T03010136  RH  036%=      5-min Rain = 0
KFR1 150053Z 17016KT 30/14 A2968 RMK A01 T03000137  RH  037%=      5-min Rain = 0
KFR1 150054Z 17015KT 30/14 A2969 RMK A01 T02990138  RH  037%=      5-min Rain = 0
KFR1 150055Z 17016KT 30/14 A2969 RMK A01 T02980136  RH  037%=      5-min Rain = 0
KFR1 150056Z 17017G24KT 30/14 A2968 RMK A01 T02980138  RH  038%=      5-min Rain = 0
KFR1 150057Z 17016G21KT 30/14 A2968 RMK A01 T02970137  RH  037%=      5-min Rain = 0
KFR1 150058Z 17016KT 30/14 A2968 RMK A01 T02970138  RH  038%=      5-min Rain = 0
KFR1 150059Z 17016G21KT 30/14 A2969 RMK A01 T02970139  RH  038%=      5-min Rain = 0
KFR1 150100Z 17018G23KT 30/14 A2968 RMK A01 T02960139  RH  038%=      5-min Rain = 0
KFR1 150101Z 17019KT 30/14 A2968 RMK A01 T02960139  RH  038%=      5-min Rain = 0
KFR1 150102Z 17018G25KT 30/14 A2969 RMK A01 T02960139  RH  038%=      5-min Rain = 0
KFR1 150103Z 17017G24KT 30/14 A2969 RMK A01 T02960140  RH  038%=      5-min Rain = 0
KFR1 150104Z 17018G23KT 30/14 A2969 RMK A01 T02960140  RH  038%=      5-min Rain = 0
KFR1 150105Z 17019KT 30/14 A2969 RMK A01 T02960140  RH  038%=      5-min Rain = 0
KFR1 150106Z 17016KT 30/14 A2969 RMK A01 T02960140  RH  038%=      5-min Rain = 0
KFR1 150107Z 17017KT 30/14 A2969 RMK A01 T02960139  RH  038%=      5-min Rain = 0
KFR1 150108Z 17017G23KT 30/14 A2969 RMK A01 T02970140  RH  038%=      5-min Rain = 0
KFR1 150109Z 17017KT 30/14 A2969 RMK A01 T02970140  RH  038%=      5-min Rain = 0
KFR1 150110Z 18019G25KT 30/14 A2969 RMK A01 T02970141  RH  039%=      5-min Rain = 0
KFR1 150111Z 17021KT 30/14 A2969 RMK A01 T02970141  RH  039%=      5-min Rain = 0
KFR1 150112Z 17019KT 30/14 A2968 RMK A01 T02960140  RH  039%=      5-min Rain = 0
KFR1 150113Z 17020G29KT 30/14 A2968 RMK A01 T02970142  RH  039%=      5-min Rain = 0
KFR1 150114Z 17019G25KT 30/14 A2968 RMK A01 T02960142  RH  039%=      5-min Rain = 0
KFR1 150115Z 17019KT 30/14 A2968 RMK A01 T02960143  RH  039%=      5-min Rain = 0
KFR1 150116Z 17021G26KT 30/14 A2968 RMK A01 T02960143  RH  039%=      5-min Rain = 0
KFR1 150117Z 17019G24KT 30/14 A2968 RMK A01 T02960143  RH  039%=      5-min Rain = 0
KFR1 150118Z 17018G23KT 30/15 A2968 RMK A01 T02950145  RH  040%=      5-min Rain = 0
KFR1 150119Z 18016G23KT 29/15 A2968 RMK A01 T02940146  RH  040%=      5-min Rain = 0
KFR1 150120Z 18021KT 29/15 A2968 RMK A01 T02930145  RH  041%=      5-min Rain = 0
KFR1 150121Z 18019G24KT 29/15 A2968 RMK A01 T02920146  RH  041%=      5-min Rain = 0
KFR1 150122Z 18020G25KT 29/15 A2968 RMK A01 T02910147  RH  041%=      5-min Rain = 0
KFR1 150123Z 18017G22KT 29/15 A2968 RMK A01 T02910146  RH  041%=      5-min Rain = 0
KFR1 150124Z 17017G27KT 29/15 A2968 RMK A01 T02910146  RH  041%=      5-min Rain = 0
KFR1 150125Z 18020KT 29/15 A2968 RMK A01 T02910146  RH  041%=      5-min Rain = 0
KFR1 150126Z 17018G23KT 29/15 A2968 RMK A01 T02910147  RH  041%=      5-min Rain = 0
KFR1 150127Z 18018KT 29/15 A2968 RMK A01 T02900146  RH  041%=      5-min Rain = 0
KFR1 150128Z 17015G20KT 29/15 A2968 RMK A01 T02910147  RH  041%=      5-min Rain = 0
KFR1 150129Z 18017KT 29/15 A2968 RMK A01 T02900147  RH  042%=      5-min Rain = 0
KFR1 150130Z 18016KT 29/15 A2968 RMK A01 T02900148  RH  042%=      5-min Rain = 0
KFR1 150131Z 17017KT 29/15 A2968 RMK A01 T02890148  RH  042%=      5-min Rain = 0
KFR1 150132Z 17017G24KT 29/15 A2968 RMK A01 T02890146  RH  042%=      5-min Rain = 0
KFR1 150133Z 18016KT 29/15 A2968 RMK A01 T02890147  RH  042%=      5-min Rain = 0
KFR1 150134Z 18015G22KT 29/15 A2968 RMK A01 T02890147  RH  042%=      5-min Rain = 0
KFR1 150135Z 17016G22KT 29/15 A2968 RMK A01 T02890147  RH  042%=      5-min Rain = 0
KFR1 150136Z 18016G21KT 29/15 A2968 RMK A01 T02890147  RH  042%=      5-min Rain = 0
KFR1 150137Z 18016KT 29/15 A2968 RMK A01 T02890148  RH  042%=      5-min Rain = 0
KFR1 150138Z 18017KT 29/15 A2968 RMK A01 T02880147  RH  042%=      5-min Rain = 0
KFR1 150139Z 18017KT 29/15 A2968 RMK A01 T02880147  RH  042%=      5-min Rain = 0
KFR1 150140Z 17019KT 29/15 A2968 RMK A01 T02880146  RH  042%=      5-min Rain = 0
KFR1 150141Z 17017KT 29/15 A2968 RMK A01 T02890147  RH  042%=      5-min Rain = 0
KFR1 150142Z 18017G22KT 29/15 A2968 RMK A01 T02880147  RH  042%=      5-min Rain = 0
KFR1 150143Z 17018KT 29/15 A2968 RMK A01 T02880147  RH  042%=      5-min Rain = 0
KFR1 150144Z 18016G21KT 29/15 A2968 RMK A01 T02880147  RH  042%=      5-min Rain = 0
KFR1 150145Z 17017G22KT 29/15 A2968 RMK A01 T02870148  RH  043%=      5-min Rain = 0
KFR1 150146Z 18017KT 29/15 A2968 RMK A01 T02870147  RH  043%=      5-min Rain = 0
KFR1 150147Z 17016KT 29/15 A2968 RMK A01 T02860148  RH  043%=      5-min Rain = 0
KFR1 150148Z 18019G24KT 29/15 A2968 RMK A01 T02860147  RH  043%=      5-min Rain = 0
KFR1 150149Z 18018KT 29/15 A2968 RMK A01 T02860147  RH  043%=      5-min Rain = 0
KFR1 150150Z 17017G23KT 29/15 A2968 RMK A01 T02860147  RH  043%=      5-min Rain = 0
KFR1 150151Z 18017G22KT 29/15 A2968 RMK A01 T02860148  RH  043%=      5-min Rain = 0
KFR1 150152Z 17020KT 29/15 A2968 RMK A01 T02850147  RH  043%=      5-min Rain = 0
KFR1 150153Z 17017G22KT 29/15 A2968 RMK A01 T02860147  RH  043%=      5-min Rain = 0
KFR1 150154Z 17018G25KT 29/15 A2968 RMK A01 T02860147  RH  043%=      5-min Rain = 0
KFR1 150155Z 17017G22KT 29/15 A2968 RMK A01 T02860147  RH  043%=      5-min Rain = 0
KFR1 150156Z 17016G27KT 29/15 A2968 RMK A01 T02860148  RH  043%=      5-min Rain = 0
KFR1 150157Z 17017KT 29/15 A2968 RMK A01 T02860147  RH  043%=      5-min Rain = 0
KFR1 150158Z 17018KT 29/15 A2968 RMK A01 T02850147  RH  043%=      5-min Rain = 0
KFR1 150159Z 18018G24KT 29/15 A2968 RMK A01 T02850147  RH  043%=      5-min Rain = 0
KFR1 150200Z 18016G23KT 29/15 A2968 RMK A01 T02850147  RH  043%=      5-min Rain = 0
KFR1 150201Z 18017G24KT 29/15 A2968 RMK A01 T02850149  RH  043%=      5-min Rain = 0
KFR1 150202Z 17019KT 28/15 A2968 RMK A01 T02840148  RH  043%=      5-min Rain = 0
KFR1 150203Z 18016KT 29/15 A2968 RMK A01 T02850148  RH  043%=      5-min Rain = 0
KFR1 150204Z 17019G24KT 29/15 A2968 RMK A01 T02850148  RH  043%=      5-min Rain = 0
KFR1 150205Z 17018KT 29/15 A2968 RMK A01 T02850147  RH  043%=      5-min Rain = 0
KFR1 150206Z 18019KT 29/15 A2968 RMK A01 T02850148  RH  043%=      5-min Rain = 0
KFR1 150207Z 18018KT 29/15 A2968 RMK A01 T02850148  RH  043%=      5-min Rain = 0
KFR1 150208Z 18020G27KT 29/15 A2968 RMK A01 T02860147  RH  043%=      5-min Rain = 0
KFR1 150209Z 18018G23KT 29/15 A2968 RMK A01 T02860147  RH  043%=      5-min Rain = 0
KFR1 150210Z 18018G23KT 29/15 A2968 RMK A01 T02860147  RH  043%=      5-min Rain = 0
KFR1 150211Z 18016KT 29/15 A2968 RMK A01 T02870148  RH  043%=      5-min Rain = 0
KFR1 150212Z 18019G24KT 29/15 A2968 RMK A01 T02860147  RH  043%=      5-min Rain = 0
KFR1 150213Z 18020KT 29/15 A2968 RMK A01 T02860147  RH  043%=      5-min Rain = 0
KFR1 150214Z 18018G23KT 29/15 A2968 RMK A01 T02870146  RH  042%=      5-min Rain = 0
KFR1 150215Z 18019KT 29/15 A2969 RMK A01 T02870146  RH  042%=      5-min Rain = 0
KFR1 150216Z 18017KT 29/15 A2969 RMK A01 T02870146  RH  042%=      5-min Rain = 0
KFR1 150217Z 17017G24KT 29/15 A2969 RMK A01 T02870147  RH  042%=      5-min Rain = 0
KFR1 150218Z 18019KT 29/15 A2969 RMK A01 T02870146  RH  042%=      5-min Rain = 0
KFR1 150219Z 18020KT 29/15 A2969 RMK A01 T02870146  RH  042%=      5-min Rain = 0
KFR1 150220Z 18018G23KT 29/15 A2969 RMK A01 T02880146  RH  042%=      5-min Rain = 0
KFR1 150221Z 18020KT 29/15 A2969 RMK A01 T02880146  RH  042%=      5-min Rain = 0
KFR1 150222Z 18017KT 29/15 A2969 RMK A01 T02880147  RH  042%=      5-min Rain = 0
KFR1 150223Z 18017G23KT 29/15 A2969 RMK A01 T02870147  RH  043%=      5-min Rain = 0
KFR1 150224Z 18016KT 29/15 A2969 RMK A01 T02860147  RH  043%=      5-min Rain = 0
KFR1 150225Z 18016KT 29/15 A2969 RMK A01 T02850146  RH  043%=      5-min Rain = 0
KFR1 150226Z 18016KT 29/15 A2969 RMK A01 T02850146  RH  043%=      5-min Rain = 0
KFR1 150227Z 18019G24KT 29/15 A2969 RMK A01 T02850147  RH  043%=      5-min Rain = 0
KFR1 150228Z 18015G21KT 28/15 A2969 RMK A01 T02840146  RH  043%=      5-min Rain = 0
KFR1 150229Z 18017KT 29/15 A2969 RMK A01 T02850146  RH  043%=      5-min Rain = 0
KFR1 150230Z 18018G24KT 28/15 A2969 RMK A01 T02840146  RH  043%=      5-min Rain = 0
KFR1 150231Z 18018G24KT 28/15 A2968 RMK A01 T02840145  RH  043%=      5-min Rain = 0
KFR1 150232Z 18018G26KT 28/15 A2969 RMK A01 T02840145  RH  043%=      5-min Rain = 0
KFR1 150233Z 18018G24KT 28/15 A2969 RMK A01 T02840145  RH  043%=      5-min Rain = 0
KFR1 150234Z 18015KT 28/15 A2969 RMK A01 T02840146  RH  043%=      5-min Rain = 0
KFR1 150235Z 18018G23KT 28/15 A2969 RMK A01 T02830145  RH  043%=      5-min Rain = 0
KFR1 150236Z 18019G24KT 28/15 A2969 RMK A01 T02830145  RH  043%=      5-min Rain = 0
KFR1 150237Z 18018KT 28/15 A2969 RMK A01 T02830145  RH  043%=      5-min Rain = 0
KFR1 150238Z 18016G22KT 28/15 A2969 RMK A01 T02830145  RH  043%=      5-min Rain = 0
KFR1 150239Z 18016G21KT 28/15 A2969 RMK A01 T02830146  RH  043%=      5-min Rain = 0
KFR1 150240Z 18016KT 28/15 A2969 RMK A01 T02820146  RH  043%=      5-min Rain = 0
KFR1 150241Z 18017G24KT 28/15 A2969 RMK A01 T02810145  RH  043%=      5-min Rain = 0
KFR1 150242Z 18016G24KT 28/15 A2969 RMK A01 T02810145  RH  043%=      5-min Rain = 0
KFR1 150243Z 18016KT 28/15 A2969 RMK A01 T02800145  RH  044%=      5-min Rain = 0
KFR1 150244Z 18017KT 28/15 A2969 RMK A01 T02800145  RH  044%=      5-min Rain = 0
KFR1 150245Z 18016G24KT 28/15 A2969 RMK A01 T02800145  RH  044%=      5-min Rain = 0
KFR1 150246Z 18019KT 28/15 A2969 RMK A01 T02790145  RH  044%=      5-min Rain = 0
KFR1 150247Z 18017G22KT 28/14 A2969 RMK A01 T02800144  RH  043%=      5-min Rain = 0
KFR1 150248Z 19018KT 28/14 A2969 RMK A01 T02800144  RH  043%=      5-min Rain = 0
KFR1 150249Z 18016KT 28/14 A2969 RMK A01 T02790143  RH  043%=      5-min Rain = 0
KFR1 150250Z 18017G22KT 28/14 A2969 RMK A01 T02790142  RH  043%=      5-min Rain = 0
KFR1 150251Z 18015G22KT 28/14 A2969 RMK A01 T02790142  RH  043%=      5-min Rain = 0
KFR1 150252Z 19017G25KT 28/14 A2969 RMK A01 T02790142  RH  043%=      5-min Rain = 0
KFR1 150253Z 19015KT 28/14 A2969 RMK A01 T02790141  RH  043%=      5-min Rain = 0
KFR1 150254Z 19014G19KT 28/14 A2969 RMK A01 T02790141  RH  043%=      5-min Rain = 0
KFR1 150255Z 19017G23KT 28/14 A2969 RMK A01 T02780140  RH  043%=      5-min Rain = 0
KFR1 150256Z 19013KT 28/14 A2969 RMK A01 T02780141  RH  043%=      5-min Rain = 0
KFR1 150257Z 19016KT 28/14 A2969 RMK A01 T02760141  RH  043%=      5-min Rain = 0
KFR1 150258Z 19015G21KT 28/14 A2969 RMK A01 T02750140  RH  043%=      5-min Rain = 0
KFR1 150259Z 18016KT 28/14 A2969 RMK A01 T02750140  RH  043%=      5-min Rain = 0
KFR1 150300Z 19017G22KT 28/14 A2969 RMK A01 T02750139  RH  043%=      5-min Rain = 0
KFR1 150301Z 19018KT 28/14 A2969 RMK A01 T02760138  RH  043%=      5-min Rain = 0
KFR1 150302Z 18016KT 28/14 A2969 RMK A01 T02760137  RH  043%=      5-min Rain = 0
KFR1 150303Z 18017KT 28/14 A2969 RMK A01 T02760137  RH  043%=      5-min Rain = 0
KFR1 150304Z 19014KT 28/14 A2969 RMK A01 T02760137  RH  043%=      5-min Rain = 0
KFR1 150305Z 19017G22KT 28/14 A2969 RMK A01 T02750135  RH  042%=      5-min Rain = 0
KFR1 150306Z 19017G22KT 28/13 A2969 RMK A01 T02760134  RH  042%=      5-min Rain = 0
KFR1 150307Z 18017KT 28/13 A2969 RMK A01 T02770134  RH  041%=      5-min Rain = 0
KFR1 150308Z 19016G24KT 28/13 A2969 RMK A01 T02760133  RH  041%=      5-min Rain = 0
KFR1 150309Z 19018KT 28/13 A2969 RMK A01 T02760133  RH  041%=      5-min Rain = 0
KFR1 150310Z 19017KT 28/13 A2969 RMK A01 T02760132  RH  041%=      5-min Rain = 0
KFR1 150311Z 19017KT 28/13 A2969 RMK A01 T02760131  RH  041%=      5-min Rain = 0
KFR1 150312Z 19016KT 28/13 A2969 RMK A01 T02770131  RH  041%=      5-min Rain = 0
KFR1 150313Z 19015G20KT 28/13 A2969 RMK A01 T02760131  RH  041%=      5-min Rain = 0
KFR1 150314Z 19015KT 28/13 A2969 RMK A01 T02760130  RH  041%=      5-min Rain = 0
KFR1 150315Z 19015KT 28/13 A2969 RMK A01 T02760130  RH  041%=      5-min Rain = 0
KFR1 150316Z 19017KT 28/13 A297 RMK A01 T02750130  RH  041%=      5-min Rain = 0
KFR1 150317Z 19017KT 28/13 A297 RMK A01 T02750131  RH  041%=      5-min Rain = 0
KFR1 150318Z 19016KT 27/13 A297 RMK A01 T02740129  RH  041%=      5-min Rain = 0
KFR1 150319Z 19015KT 28/13 A297 RMK A01 T02750128  RH  040%=      5-min Rain = 0
KFR1 150320Z 19016KT 28/13 A297 RMK A01 T02750129  RH  040%=      5-min Rain = 0
KFR1 150321Z 19016KT 28/13 A297 RMK A01 T02750128  RH  040%=      5-min Rain = 0
KFR1 150322Z 19012KT 28/13 A297 RMK A01 T02750129  RH  040%=      5-min Rain = 0
KFR1 150323Z 19014KT 28/13 A297 RMK A01 T02750128  RH  040%=      5-min Rain = 0
KFR1 150324Z 20014KT 27/13 A297 RMK A01 T02740129  RH  041%=      5-min Rain = 0
KFR1 150325Z 19015KT 27/13 A297 RMK A01 T02730128  RH  041%=      5-min Rain = 0
KFR1 150326Z 19015KT 27/13 A297 RMK A01 T02730128  RH  041%=      5-min Rain = 0
KFR1 150327Z 19014KT 27/13 A297 RMK A01 T02720127  RH  041%=      5-min Rain = 0
KFR1 150328Z 19015KT 27/13 A297 RMK A01 T02720127  RH  041%=      5-min Rain = 0
KFR1 150329Z 19014KT 27/13 A297 RMK A01 T02720127  RH  040%=      5-min Rain = 0
KFR1 150330Z 19014G19KT 27/13 A297 RMK A01 T02720126  RH  040%=      5-min Rain = 0
KFR1 150331Z 19012G17KT 27/13 A297 RMK A01 T02710127  RH  041%=      5-min Rain = 0
KFR1 150332Z 20013KT 27/13 A297 RMK A01 T02700126  RH  041%=      5-min Rain = 0
KFR1 150333Z 19013KT 27/13 A297 RMK A01 T02700125  RH  041%=      5-min Rain = 0
KFR1 150334Z 19015KT 27/13 A297 RMK A01 T02700126  RH  041%=      5-min Rain = 0
KFR1 150335Z 19013KT 27/13 A2971 RMK A01 T02690126  RH  041%=      5-min Rain = 0
KFR1 150336Z 19014KT 27/13 A2971 RMK A01 T02690126  RH  041%=      5-min Rain = 0
KFR1 150337Z 19011G17KT 27/13 A2971 RMK A01 T02690126  RH  041%=      5-min Rain = 0
KFR1 150338Z 19012KT 27/13 A2971 RMK A01 T02680127  RH  042%=      5-min Rain = 0
KFR1 150339Z 19012KT 27/13 A2971 RMK A01 T02670127  RH  042%=      5-min Rain = 0
KFR1 150340Z 19011KT 27/13 A2971 RMK A01 T02670128  RH  042%=      5-min Rain = 0
KFR1 150341Z 19011G16KT 27/13 A2971 RMK A01 T02660129  RH  043%=      5-min Rain = 0
KFR1 150342Z 18014KT 27/13 A2971 RMK A01 T02650130  RH  043%=      5-min Rain = 0
KFR1 150343Z 18013KT 27/13 A2971 RMK A01 T02660131  RH  043%=      5-min Rain = 0
KFR1 150344Z 19014KT 27/13 A2971 RMK A01 T02650132  RH  044%=      5-min Rain = 0
KFR1 150345Z 18013KT 27/13 A2971 RMK A01 T02650134  RH  044%=      5-min Rain = 0
KFR1 150346Z 18012KT 26/13 A2971 RMK A01 T02640134  RH  045%=      5-min Rain = 0
KFR1 150347Z 18010KT 26/14 A2971 RMK A01 T02630135  RH  045%=      5-min Rain = 0
KFR1 150348Z 18013KT 26/14 A2971 RMK A01 T02620135  RH  045%=      5-min Rain = 0
KFR1 150349Z 18012KT 26/14 A2971 RMK A01 T02620137  RH  046%=      5-min Rain = 0
KFR1 150350Z 18013KT 26/14 A2971 RMK A01 T02610137  RH  046%=      5-min Rain = 0
KFR1 150351Z 18013KT 26/14 A2971 RMK A01 T02600138  RH  047%=      5-min Rain = 0
KFR1 150352Z 18011KT 26/14 A2971 RMK A01 T02590139  RH  047%=      5-min Rain = 0
KFR1 150353Z 18013KT 26/14 A2971 RMK A01 T02580139  RH  048%=      5-min Rain = 0
KFR1 150354Z 18013KT 26/14 A2971 RMK A01 T02570140  RH  048%=      5-min Rain = 0
KFR1 150355Z 17015G20KT 26/14 A2971 RMK A01 T02570141  RH  049%=      5-min Rain = 0
KFR1 150356Z 18013KT 26/14 A2971 RMK A01 T02560142  RH  049%=      5-min Rain = 0
KFR1 150357Z 18013KT 26/14 A2971 RMK A01 T02560143  RH  050%=      5-min Rain = 0
KFR1 150358Z 18015KT 26/14 A2971 RMK A01 T02550143  RH  050%=      5-min Rain = 0
KFR1 150359Z 17014KT 25/14 A2971 RMK A01 T02540144  RH  050%=      5-min Rain = 0
KFR1 150400Z 18015KT 25/15 A2971 RMK A01 T02540145  RH  051%=      5-min Rain = 0
KFR1 150401Z 18013KT 25/15 A2971 RMK A01 T02530145  RH  051%=      5-min Rain = 0
KFR1 150402Z 18013KT 25/15 A2971 RMK A01 T02520145  RH  051%=      5-min Rain = 0
KFR1 150403Z 18014KT 25/15 A2971 RMK A01 T02520145  RH  052%=      5-min Rain = 0
KFR1 150404Z 18012KT 25/15 A2971 RMK A01 T02520145  RH  052%=      5-min Rain = 0
KFR1 150405Z 18012KT 25/15 A2971 RMK A01 T02510145  RH  052%=      5-min Rain = 0
KFR1 150406Z 17012G17KT 25/14 A2971 RMK A01 T02510144  RH  052%=      5-min Rain = 0
KFR1 150407Z 18014KT 25/14 A2971 RMK A01 T02510143  RH  051%=      5-min Rain = 0
KFR1 150408Z 18013KT 25/14 A2971 RMK A01 T02520144  RH  051%=      5-min Rain = 0
KFR1 150409Z 19012KT 25/14 A2971 RMK A01 T02520144  RH  051%=      5-min Rain = 0
KFR1 150410Z 18015KT 25/14 A2971 RMK A01 T02520144  RH  051%=      5-min Rain = 0
KFR1 150411Z 19012KT 25/14 A2971 RMK A01 T02520144  RH  051%=      5-min Rain = 0
KFR1 150412Z 18014G19KT 25/14 A2971 RMK A01 T02520143  RH  051%=      5-min Rain = 0
KFR1 150413Z 19011KT 25/14 A2971 RMK A01 T02520142  RH  051%=      5-min Rain = 0
KFR1 150414Z 19010KT 25/14 A2971 RMK A01 T02520143  RH  051%=      5-min Rain = 0
KFR1 150415Z 19016KT 25/14 A2971 RMK A01 T02510139  RH  050%=      5-min Rain = 0
KFR1 150416Z 19014KT 25/14 A2971 RMK A01 T02530137  RH  049%=      5-min Rain = 0
KFR1 150417Z 19012G17KT 25/14 A2971 RMK A01 T02540137  RH  048%=      5-min Rain = 0
KFR1 150418Z 19013KT 25/14 A2971 RMK A01 T02540137  RH  048%=      5-min Rain = 0
KFR1 150419Z 19013G18KT 25/14 A2971 RMK A01 T02540136  RH  048%=      5-min Rain = 0
KFR1 150420Z 19015KT 25/14 A2971 RMK A01 T02540135  RH  048%=      5-min Rain = 0
KFR1 150421Z 19014KT 25/13 A2971 RMK A01 T02540134  RH  047%=      5-min Rain = 0
KFR1 150422Z 19013KT 25/13 A2971 RMK A01 T02540132  RH  047%=      5-min Rain = 0
KFR1 150423Z 19015G20KT 26/13 A2971 RMK A01 T02550131  RH  046%=      5-min Rain = 0
KFR1 150424Z 19017KT 26/13 A2971 RMK A01 T02550130  RH  046%=      5-min Rain = 0
KFR1 150425Z 19015KT 26/13 A2971 RMK A01 T02560129  RH  045%=      5-min Rain = 0
KFR1 150426Z 20014G19KT 26/13 A2971 RMK A01 T02560129  RH  045%=      5-min Rain = 0
KFR1 150427Z 19016KT 26/13 A2971 RMK A01 T02550128  RH  045%=      5-min Rain = 0
KFR1 150428Z 20014KT 26/13 A2971 RMK A01 T02550126  RH  045%=      5-min Rain = 0
KFR1 150429Z 19016G21KT 26/13 A2971 RMK A01 T02560126  RH  044%=      5-min Rain = 0
KFR1 150430Z 19013KT 26/12 A2971 RMK A01 T02560123  RH  044%=      5-min Rain = 0
KFR1 150431Z 19015KT 26/12 A2972 RMK A01 T02560123  RH  044%=      5-min Rain = 0
KFR1 150432Z 19016KT 26/12 A2971 RMK A01 T02560121  RH  043%=      5-min Rain = 0
KFR1 150433Z 19017KT 26/12 A2971 RMK A01 T02560119  RH  042%=      5-min Rain = 0
KFR1 150434Z 19016G21KT 26/12 A2971 RMK A01 T02580117  RH  041%=      5-min Rain = 0
KFR1 150435Z 19013G18KT 26/12 A2972 RMK A01 T02580117  RH  041%=      5-min Rain = 0
KFR1 150436Z 19015KT 26/12 A2972 RMK A01 T02580117  RH  041%=      5-min Rain = 0
KFR1 150437Z 19016KT 26/12 A2972 RMK A01 T02580115  RH  041%=      5-min Rain = 0
KFR1 150438Z 19016KT 26/12 A2972 RMK A01 T02580115  RH  041%=      5-min Rain = 0
KFR1 150439Z 19016G21KT 26/11 A2971 RMK A01 T02580114  RH  040%=      5-min Rain = 0
KFR1 150440Z 19016KT 26/11 A2971 RMK A01 T02580112  RH  040%=      5-min Rain = 0
KFR1 150441Z 19016G22KT 26/11 A2972 RMK A01 T02590112  RH  040%=      5-min Rain = 0
KFR1 150442Z 19016KT 26/11 A2972 RMK A01 T02600112  RH  040%=      5-min Rain = 0
KFR1 150443Z 19016G21KT 26/11 A2972 RMK A01 T02590111  RH  039%=      5-min Rain = 0
KFR1 150444Z 19017KT 26/11 A2972 RMK A01 T02590110  RH  039%=      5-min Rain = 0
KFR1 150445Z 19015G22KT 26/11 A2972 RMK A01 T02600110  RH  039%=      5-min Rain = 0
KFR1 150446Z 19016KT 26/11 A2972 RMK A01 T02610110  RH  039%=      5-min Rain = 0
KFR1 150447Z 19016KT 26/11 A2972 RMK A01 T02610110  RH  039%=      5-min Rain = 0
KFR1 150448Z 18014KT 26/11 A2972 RMK A01 T02620111  RH  039%=      5-min Rain = 0
KFR1 150449Z 19017KT 26/11 A2972 RMK A01 T02620111  RH  039%=      5-min Rain = 0
KFR1 150450Z 19014G19KT 26/11 A2972 RMK A01 T02620112  RH  039%=      5-min Rain = 0
KFR1 150451Z 18018KT 26/11 A2972 RMK A01 T02610112  RH  039%=      5-min Rain = 0
KFR1 150452Z 19018KT 26/11 A2972 RMK A01 T02610111  RH  039%=      5-min Rain = 0
KFR1 150453Z 19017G22KT 26/11 A2972 RMK A01 T02620109  RH  038%=      5-min Rain = 0
KFR1 150454Z 19016G22KT 26/11 A2972 RMK A01 T02630110  RH  038%=      5-min Rain = 0
KFR1 150455Z 19016G21KT 26/11 A2973 RMK A01 T02630111  RH  038%=      5-min Rain = 0
KFR1 150456Z 19019KT 26/11 A2973 RMK A01 T02630111  RH  039%=      5-min Rain = 0
KFR1 150457Z 19016KT 26/11 A2973 RMK A01 T02630111  RH  039%=      5-min Rain = 0
KFR1 150458Z 19014KT 26/11 A2973 RMK A01 T02630111  RH  039%=      5-min Rain = 0
KFR1 150459Z 19016KT 26/11 A2973 RMK A01 T02630111  RH  039%=      5-min Rain = 0

Page generated in 0.236 seconds.